DANDY01 RJNH-RJNH
Flight info
| Callsign | DANDY01 |
|---|---|
| Flight time | 6h 55m |
| Altitude | 24000 |
| Route | XMT150030 XMT KEC A1 SUC B597 ONC 2700N12600E/N0449F300 ONC/N0409F270 B597 SUC A1 KEC V52 SHIMA 3444N13730E |
| Aircraft | E767/H-SDFHILOUV/C |
Departure
| Time | 2026-04-20 23:00 |
|---|---|
| Airport | JASDF Hamamatsu Air Base (RJNH) |
Arrival
| Time | 2026-04-21 05:55 |
|---|---|
| Airport | JASDF Hamamatsu Air Base (RJNH) |
| Time | Latitude | Longitude | Altitude | Speed | Heading |
|---|---|---|---|---|---|
| 2026-04-20 22:49 | 34.74797 | 137.69639 | 157 ft | 0 kts | 135° |
| 2026-04-20 22:54 | 34.74795 | 137.69641 | 157 ft | 5 kts | 135° |
| 2026-04-20 22:54 | 34.74791 | 137.69695 | 157 ft | 6 kts | 45° |
| 2026-04-20 22:55 | 34.74839 | 137.69698 | 158 ft | 10 kts | 357° |
| 2026-04-20 22:55 | 34.74891 | 137.69737 | 159 ft | 10 kts | 69° |
| 2026-04-20 22:55 | 34.74895 | 137.69855 | 160 ft | 17 kts | 90° |
| 2026-04-20 22:55 | 34.74900 | 137.69998 | 159 ft | 17 kts | 75° |
| 2026-04-20 22:56 | 34.74953 | 137.70127 | 161 ft | 17 kts | 62° |
| 2026-04-20 22:56 | 34.75011 | 137.70253 | 161 ft | 17 kts | 59° |
| 2026-04-20 22:56 | 34.75099 | 137.70340 | 163 ft | 17 kts | 8° |
| 2026-04-20 22:56 | 34.75202 | 137.70345 | 165 ft | 13 kts | 2° |
| 2026-04-20 22:57 | 34.75249 | 137.70427 | 164 ft | 13 kts | 86° |
| 2026-04-20 22:57 | 34.75250 | 137.70539 | 162 ft | 13 kts | 91° |
| 2026-04-20 22:57 | 34.75247 | 137.70653 | 161 ft | 15 kts | 91° |
| 2026-04-20 22:57 | 34.75246 | 137.70809 | 161 ft | 20 kts | 90° |
| 2026-04-20 22:58 | 34.75245 | 137.70975 | 157 ft | 20 kts | 90° |
| 2026-04-20 22:58 | 34.75244 | 137.71141 | 155 ft | 20 kts | 90° |
| 2026-04-20 22:58 | 34.75244 | 137.71305 | 157 ft | 18 kts | 90° |
| 2026-04-20 22:58 | 34.75234 | 137.71440 | 156 ft | 14 kts | 111° |
| 2026-04-20 22:59 | 34.75179 | 137.71541 | 156 ft | 14 kts | 125° |
| 2026-04-20 22:59 | 34.75121 | 137.71640 | 159 ft | 14 kts | 127° |
| 2026-04-20 22:59 | 34.75054 | 137.71659 | 160 ft | 8 kts | 232° |
| 2026-04-20 22:59 | 34.75039 | 137.71478 | 158 ft | 61 kts | 271° |
| 2026-04-20 23:00 | 34.75052 | 137.70556 | 164 ft | 154 kts | 271° |
| 2026-04-20 23:00 | 34.75054 | 137.68988 | 629 ft | 195 kts | 271° |
| 2026-04-20 23:00 | 34.75076 | 137.67371 | 2071 ft | 180 kts | 267° |
| 2026-04-20 23:00 | 34.74872 | 137.65811 | 3011 ft | 197 kts | 263° |
| 2026-04-20 23:01 | 34.74575 | 137.64101 | 3565 ft | 212 kts | 262° |
| 2026-04-20 23:01 | 34.74184 | 137.62344 | 4301 ft | 222 kts | 251° |
| 2026-04-20 23:01 | 34.73133 | 137.60873 | 5066 ft | 243 kts | 219° |
| 2026-04-20 23:01 | 34.71549 | 137.60121 | 5968 ft | 248 kts | 202° |
| 2026-04-20 23:02 | 34.69871 | 137.59557 | 6756 ft | 251 kts | 202° |
| 2026-04-20 23:02 | 34.68170 | 137.58981 | 7475 ft | 261 kts | 202° |
| 2026-04-20 23:02 | 34.66393 | 137.58364 | 8142 ft | 270 kts | 202° |
| 2026-04-20 23:02 | 34.64571 | 137.57720 | 8964 ft | 274 kts | 202° |
| 2026-04-20 23:03 | 34.62735 | 137.57062 | 9865 ft | 275 kts | 202° |
| 2026-04-20 23:03 | 34.60888 | 137.56397 | 10714 ft | 277 kts | 202° |
| 2026-04-20 23:03 | 34.59037 | 137.55734 | 11521 ft | 279 kts | 202° |
| 2026-04-20 23:03 | 34.57144 | 137.55057 | 12110 ft | 292 kts | 202° |
| 2026-04-20 23:04 | 34.55116 | 137.54318 | 12277 ft | 317 kts | 202° |
| 2026-04-20 23:04 | 34.52931 | 137.53504 | 12669 ft | 335 kts | 202° |
| 2026-04-20 23:04 | 34.50676 | 137.52657 | 13407 ft | 343 kts | 202° |
| 2026-04-20 23:04 | 34.48436 | 137.51792 | 14133 ft | 344 kts | 206° |
| 2026-04-20 23:05 | 34.46321 | 137.50457 | 14733 ft | 343 kts | 220° |
| 2026-04-20 23:05 | 34.44520 | 137.48593 | 15567 ft | 339 kts | 230° |
| 2026-04-20 23:05 | 34.43044 | 137.46394 | 16399 ft | 335 kts | 239° |
| 2026-04-20 23:05 | 34.41705 | 137.44073 | 17158 ft | 338 kts | 240° |
| 2026-04-20 23:06 | 34.40370 | 137.41717 | 17925 ft | 341 kts | 241° |
| 2026-04-20 23:06 | 34.39029 | 137.39348 | 18623 ft | 343 kts | 241° |
| 2026-04-20 23:06 | 34.37673 | 137.36959 | 19260 ft | 346 kts | 241° |
| 2026-04-20 23:06 | 34.36300 | 137.34551 | 19868 ft | 349 kts | 240° |
| 2026-04-20 23:07 | 34.34912 | 137.32127 | 20475 ft | 352 kts | 240° |
| 2026-04-20 23:07 | 34.33508 | 137.29686 | 21086 ft | 355 kts | 240° |
| 2026-04-20 23:07 | 34.32091 | 137.27228 | 21666 ft | 358 kts | 240° |
| 2026-04-20 23:07 | 34.30661 | 137.24752 | 22246 ft | 361 kts | 240° |
| 2026-04-20 23:08 | 34.29215 | 137.22254 | 22828 ft | 364 kts | 240° |
| 2026-04-20 23:08 | 34.27755 | 137.19733 | 23413 ft | 367 kts | 240° |
| 2026-04-20 23:08 | 34.26283 | 137.17194 | 23859 ft | 370 kts | 240° |
| 2026-04-20 23:08 | 34.24796 | 137.14631 | 23915 ft | 373 kts | 240° |
| 2026-04-20 23:09 | 34.23311 | 137.12076 | 23933 ft | 371 kts | 240° |
| 2026-04-20 23:09 | 34.21828 | 137.09529 | 23934 ft | 370 kts | 240° |
| 2026-04-20 23:09 | 34.20347 | 137.06985 | 23935 ft | 370 kts | 240° |
| 2026-04-20 23:09 | 34.18863 | 137.04437 | 23936 ft | 371 kts | 240° |
| 2026-04-20 23:10 | 34.17380 | 137.01891 | 23933 ft | 371 kts | 240° |
| 2026-04-20 23:10 | 34.15892 | 136.99338 | 23938 ft | 371 kts | 240° |
| 2026-04-20 23:10 | 34.14408 | 136.96793 | 23929 ft | 372 kts | 240° |
| 2026-04-20 23:10 | 34.12919 | 136.94242 | 23938 ft | 372 kts | 240° |
| 2026-04-20 23:11 | 34.11429 | 136.91691 | 23938 ft | 372 kts | 240° |
| 2026-04-20 23:11 | 34.09940 | 136.89143 | 23945 ft | 372 kts | 240° |
| 2026-04-20 23:11 | 34.08445 | 136.86588 | 23942 ft | 372 kts | 240° |
| 2026-04-20 23:11 | 34.06951 | 136.84036 | 23943 ft | 372 kts | 240° |
| 2026-04-20 23:12 | 34.05458 | 136.81486 | 23942 ft | 372 kts | 240° |
| 2026-04-20 23:12 | 34.03964 | 136.78938 | 23944 ft | 372 kts | 240° |
| 2026-04-20 23:12 | 34.02471 | 136.76393 | 23931 ft | 372 kts | 240° |
| 2026-04-20 23:12 | 34.00975 | 136.73843 | 23923 ft | 372 kts | 240° |
| 2026-04-20 23:13 | 33.99481 | 136.71298 | 23942 ft | 373 kts | 240° |
| 2026-04-20 23:13 | 33.97979 | 136.68743 | 23945 ft | 374 kts | 240° |
| 2026-04-20 23:13 | 33.96473 | 136.66183 | 23946 ft | 375 kts | 240° |
| 2026-04-20 23:13 | 33.94960 | 136.63613 | 23947 ft | 376 kts | 240° |
| 2026-04-20 23:14 | 33.93466 | 136.61076 | 23943 ft | 377 kts | 240° |
| 2026-04-20 23:14 | 33.91931 | 136.58473 | 23941 ft | 377 kts | 240° |
| 2026-04-20 23:14 | 33.90434 | 136.55936 | 23941 ft | 376 kts | 240° |
| 2026-04-20 23:14 | 33.88902 | 136.53342 | 23942 ft | 375 kts | 240° |
| 2026-04-20 23:15 | 33.87391 | 136.50784 | 23941 ft | 375 kts | 240° |
| 2026-04-20 23:15 | 33.85880 | 136.48229 | 23940 ft | 374 kts | 240° |
| 2026-04-20 23:15 | 33.84370 | 136.45676 | 23942 ft | 374 kts | 240° |
| 2026-04-20 23:15 | 33.82862 | 136.43129 | 23939 ft | 374 kts | 240° |
| 2026-04-20 23:16 | 33.81374 | 136.40616 | 23941 ft | 374 kts | 240° |
| 2026-04-20 23:16 | 33.79845 | 136.38035 | 23938 ft | 374 kts | 240° |
| 2026-04-20 23:16 | 33.78334 | 136.35490 | 23935 ft | 374 kts | 239° |
| 2026-04-20 23:16 | 33.76842 | 136.32976 | 23936 ft | 375 kts | 239° |
| 2026-04-20 23:17 | 33.75327 | 136.30425 | 23938 ft | 375 kts | 239° |
| 2026-04-20 23:17 | 33.73813 | 136.27877 | 23938 ft | 375 kts | 239° |
| 2026-04-20 23:17 | 33.72294 | 136.25323 | 23935 ft | 375 kts | 239° |
| 2026-04-20 23:17 | 33.70777 | 136.22775 | 23935 ft | 375 kts | 239° |
| 2026-04-20 23:18 | 33.69259 | 136.20226 | 23944 ft | 375 kts | 239° |
| 2026-04-20 23:18 | 33.67739 | 136.17676 | 23940 ft | 376 kts | 239° |
| 2026-04-20 23:18 | 33.66217 | 136.15125 | 23927 ft | 376 kts | 239° |
| 2026-04-20 23:18 | 33.64697 | 136.12580 | 23933 ft | 376 kts | 239° |
| 2026-04-20 23:19 | 33.63173 | 136.10028 | 23935 ft | 376 kts | 239° |
| 2026-04-20 23:19 | 33.61652 | 136.07482 | 23941 ft | 376 kts | 239° |
| 2026-04-20 23:19 | 33.60126 | 136.04930 | 23938 ft | 376 kts | 239° |
| 2026-04-20 23:19 | 33.58598 | 136.02378 | 23939 ft | 376 kts | 239° |
| 2026-04-20 23:20 | 33.57075 | 135.99835 | 23943 ft | 376 kts | 239° |
| 2026-04-20 23:20 | 33.55545 | 135.97283 | 23943 ft | 376 kts | 239° |
| 2026-04-20 23:20 | 33.54018 | 135.94736 | 23934 ft | 377 kts | 239° |
| 2026-04-20 23:20 | 33.52488 | 135.92186 | 23935 ft | 377 kts | 239° |
| 2026-04-20 23:21 | 33.50956 | 135.89634 | 23953 ft | 377 kts | 239° |
| 2026-04-20 23:21 | 33.49418 | 135.87074 | 23953 ft | 378 kts | 239° |
| 2026-04-20 23:21 | 33.47881 | 135.84519 | 23947 ft | 378 kts | 239° |
| 2026-04-20 23:21 | 33.46418 | 135.81912 | 23942 ft | 375 kts | 244° |
| 2026-04-20 23:22 | 33.45226 | 135.79151 | 23948 ft | 373 kts | 248° |
| 2026-04-20 23:22 | 33.44190 | 135.76308 | 23953 ft | 372 kts | 251° |
| 2026-04-20 23:22 | 33.43345 | 135.73387 | 23947 ft | 370 kts | 256° |
| 2026-04-20 23:22 | 33.42651 | 135.70420 | 23957 ft | 370 kts | 256° |
| 2026-04-20 23:23 | 33.41965 | 135.67448 | 23974 ft | 371 kts | 256° |
| 2026-04-20 23:23 | 33.41275 | 135.64470 | 23967 ft | 371 kts | 256° |
| 2026-04-20 23:23 | 33.40582 | 135.61495 | 23974 ft | 372 kts | 256° |
| 2026-04-20 23:23 | 33.39884 | 135.58517 | 23974 ft | 372 kts | 256° |
| 2026-04-20 23:24 | 33.39182 | 135.55537 | 23961 ft | 372 kts | 256° |
| 2026-04-20 23:24 | 33.38478 | 135.52557 | 23971 ft | 372 kts | 256° |
| 2026-04-20 23:24 | 33.37775 | 135.49581 | 23979 ft | 372 kts | 256° |
| 2026-04-20 23:24 | 33.37069 | 135.46601 | 23977 ft | 372 kts | 256° |
| 2026-04-20 23:25 | 33.36359 | 135.43621 | 23981 ft | 372 kts | 256° |
| 2026-04-20 23:25 | 33.35611 | 135.40651 | 23982 ft | 373 kts | 255° |
| 2026-04-20 23:25 | 33.34839 | 135.37688 | 23988 ft | 373 kts | 255° |
| 2026-04-20 23:25 | 33.34063 | 135.34735 | 23985 ft | 373 kts | 255° |
| 2026-04-20 23:26 | 33.33287 | 135.31778 | 23983 ft | 373 kts | 255° |
| 2026-04-20 23:26 | 33.32513 | 135.28820 | 23995 ft | 373 kts | 255° |
| 2026-04-20 23:26 | 33.31740 | 135.25858 | 23989 ft | 373 kts | 255° |
| 2026-04-20 23:26 | 33.30969 | 135.22902 | 23988 ft | 373 kts | 255° |
| 2026-04-20 23:27 | 33.30197 | 135.19943 | 23993 ft | 373 kts | 255° |
| 2026-04-20 23:27 | 33.29425 | 135.16986 | 23996 ft | 373 kts | 255° |
| 2026-04-20 23:27 | 33.28664 | 135.14070 | 23994 ft | 373 kts | 255° |
| 2026-04-20 23:27 | 33.27891 | 135.11114 | 23987 ft | 373 kts | 255° |
| 2026-04-20 23:28 | 33.27118 | 135.08161 | 23991 ft | 373 kts | 255° |
| 2026-04-20 23:28 | 33.26344 | 135.05207 | 24011 ft | 372 kts | 255° |
| 2026-04-20 23:28 | 33.25571 | 135.02258 | 23998 ft | 372 kts | 255° |
| 2026-04-20 23:28 | 33.24797 | 134.99310 | 24008 ft | 372 kts | 255° |
| 2026-04-20 23:29 | 33.24058 | 134.96351 | 23988 ft | 371 kts | 256° |
| 2026-04-20 23:29 | 33.23344 | 134.93397 | 23990 ft | 371 kts | 256° |
| 2026-04-20 23:29 | 33.22635 | 134.90439 | 23991 ft | 370 kts | 256° |
| 2026-04-20 23:29 | 33.21925 | 134.87479 | 23995 ft | 371 kts | 256° |
| 2026-04-20 23:30 | 33.21212 | 134.84521 | 24004 ft | 371 kts | 256° |
| 2026-04-20 23:30 | 33.20498 | 134.81566 | 23994 ft | 371 kts | 256° |
| 2026-04-20 23:30 | 33.19778 | 134.78602 | 23993 ft | 371 kts | 256° |
| 2026-04-20 23:30 | 33.19058 | 134.75643 | 23997 ft | 371 kts | 256° |
| 2026-04-20 23:31 | 33.18337 | 134.72682 | 23997 ft | 372 kts | 256° |
| 2026-04-20 23:31 | 33.17614 | 134.69722 | 23974 ft | 372 kts | 255° |
| 2026-04-20 23:31 | 33.16890 | 134.66761 | 23985 ft | 372 kts | 255° |
| 2026-04-20 23:31 | 33.16165 | 134.63798 | 23989 ft | 372 kts | 255° |
| 2026-04-20 23:32 | 33.15438 | 134.60828 | 24003 ft | 373 kts | 256° |
| 2026-04-20 23:32 | 33.14709 | 134.57857 | 23986 ft | 373 kts | 256° |
| 2026-04-20 23:32 | 33.13979 | 134.54886 | 23993 ft | 373 kts | 256° |
| 2026-04-20 23:32 | 33.13249 | 134.51915 | 23988 ft | 374 kts | 256° |
| 2026-04-20 23:33 | 33.12516 | 134.48938 | 23987 ft | 374 kts | 256° |
| 2026-04-20 23:33 | 33.11784 | 134.45965 | 23991 ft | 374 kts | 256° |
| 2026-04-20 23:33 | 33.11051 | 134.42993 | 23968 ft | 374 kts | 255° |
| 2026-04-20 23:33 | 33.10317 | 134.40021 | 23995 ft | 374 kts | 255° |
| 2026-04-20 23:34 | 33.09582 | 134.37049 | 23991 ft | 374 kts | 255° |
| 2026-04-20 23:34 | 33.08846 | 134.34073 | 23989 ft | 374 kts | 255° |
| 2026-04-20 23:34 | 33.08359 | 134.32106 | 23989 ft | 374 kts | 255° |
| 2026-04-20 23:34 | 33.07373 | 134.28123 | 23990 ft | 375 kts | 255° |
| 2026-04-20 23:35 | 33.06883 | 134.26152 | 23988 ft | 375 kts | 255° |
| 2026-04-20 23:35 | 33.05412 | 134.20189 | 24002 ft | 375 kts | 256° |
| 2026-04-20 23:35 | 33.04689 | 134.17199 | 23991 ft | 375 kts | 256° |
| 2026-04-20 23:36 | 33.03970 | 134.14219 | 23984 ft | 375 kts | 255° |
| 2026-04-20 23:36 | 33.03250 | 134.11240 | 23992 ft | 374 kts | 255° |
| 2026-04-20 23:36 | 33.02529 | 134.08257 | 23993 ft | 374 kts | 255° |
| 2026-04-20 23:36 | 33.01808 | 134.05281 | 23991 ft | 374 kts | 255° |
| 2026-04-20 23:37 | 33.01085 | 134.02303 | 24003 ft | 374 kts | 256° |
| 2026-04-20 23:37 | 33.00360 | 133.99324 | 23997 ft | 374 kts | 256° |
| 2026-04-20 23:37 | 32.99634 | 133.96341 | 23994 ft | 375 kts | 256° |
| 2026-04-20 23:37 | 32.98907 | 133.93361 | 23995 ft | 375 kts | 256° |
| 2026-04-20 23:38 | 32.98179 | 133.90381 | 23997 ft | 375 kts | 256° |
| 2026-04-20 23:38 | 32.97451 | 133.87401 | 23986 ft | 375 kts | 255° |
| 2026-04-20 23:38 | 32.96721 | 133.84419 | 23986 ft | 375 kts | 255° |
| 2026-04-20 23:38 | 32.95990 | 133.81434 | 23998 ft | 375 kts | 255° |
| 2026-04-20 23:39 | 32.95269 | 133.78494 | 23998 ft | 376 kts | 255° |
| 2026-04-20 23:39 | 32.94535 | 133.75504 | 23998 ft | 376 kts | 255° |
| 2026-04-20 23:39 | 32.93800 | 133.72516 | 23997 ft | 376 kts | 255° |
| 2026-04-20 23:39 | 32.93064 | 133.69526 | 23998 ft | 377 kts | 255° |
| 2026-04-20 23:40 | 32.92328 | 133.66538 | 23998 ft | 377 kts | 255° |
| 2026-04-20 23:40 | 32.91591 | 133.63545 | 23997 ft | 377 kts | 255° |
| 2026-04-20 23:40 | 32.90851 | 133.60548 | 24004 ft | 377 kts | 255° |
| 2026-04-20 23:40 | 32.90112 | 133.57559 | 23978 ft | 377 kts | 255° |
| 2026-04-20 23:41 | 32.89371 | 133.54571 | 23990 ft | 377 kts | 255° |
| 2026-04-20 23:41 | 32.88628 | 133.51583 | 23995 ft | 377 kts | 255° |
| 2026-04-20 23:41 | 32.87883 | 133.48595 | 24001 ft | 377 kts | 255° |
| 2026-04-20 23:41 | 32.87139 | 133.45609 | 24000 ft | 377 kts | 255° |
| 2026-04-20 23:42 | 32.86394 | 133.42624 | 24012 ft | 377 kts | 255° |
| 2026-04-20 23:42 | 32.85647 | 133.39632 | 24006 ft | 377 kts | 255° |
| 2026-04-20 23:42 | 32.84899 | 133.36642 | 24001 ft | 378 kts | 255° |
| 2026-04-20 23:42 | 32.84150 | 133.33646 | 23999 ft | 378 kts | 255° |
| 2026-04-20 23:43 | 32.83400 | 133.30655 | 24003 ft | 378 kts | 255° |
| 2026-04-20 23:43 | 32.82650 | 133.27663 | 23989 ft | 377 kts | 254° |
| 2026-04-20 23:43 | 32.81900 | 133.24675 | 23998 ft | 377 kts | 254° |
| 2026-04-20 23:43 | 32.81150 | 133.21690 | 24015 ft | 377 kts | 255° |
| 2026-04-20 23:44 | 32.80399 | 133.18703 | 24008 ft | 377 kts | 255° |
| 2026-04-20 23:44 | 32.79647 | 133.15718 | 24005 ft | 377 kts | 255° |
| 2026-04-20 23:44 | 32.78895 | 133.12733 | 24007 ft | 377 kts | 255° |
| 2026-04-20 23:44 | 32.78142 | 133.09748 | 24009 ft | 377 kts | 255° |
| 2026-04-20 23:45 | 32.77388 | 133.06766 | 24011 ft | 377 kts | 255° |
| 2026-04-20 23:45 | 32.76603 | 133.03800 | 24005 ft | 375 kts | 251° |
| 2026-04-20 23:45 | 32.75413 | 133.01035 | 24019 ft | 380 kts | 240° |
| 2026-04-20 23:45 | 32.73861 | 132.98473 | 24013 ft | 384 kts | 235° |
| 2026-04-20 23:46 | 32.72024 | 132.96148 | 24009 ft | 389 kts | 226° |
| 2026-04-20 23:46 | 32.69919 | 132.94110 | 24016 ft | 391 kts | 224° |
| 2026-04-20 23:46 | 32.65337 | 132.89795 | 24020 ft | 392 kts | 224° |
| 2026-04-20 23:47 | 32.63200 | 132.87777 | 24018 ft | 392 kts | 224° |
| 2026-04-20 23:47 | 32.61068 | 132.85754 | 24017 ft | 392 kts | 224° |
| 2026-04-20 23:47 | 32.58942 | 132.83730 | 24022 ft | 392 kts | 224° |
| 2026-04-20 23:47 | 32.56820 | 132.81707 | 24021 ft | 391 kts | 224° |
| 2026-04-20 23:48 | 32.54701 | 132.79683 | 24021 ft | 391 kts | 224° |
| 2026-04-20 23:48 | 32.52582 | 132.77660 | 24027 ft | 391 kts | 224° |
| 2026-04-20 23:48 | 32.50465 | 132.75639 | 24027 ft | 391 kts | 224° |
| 2026-04-20 23:48 | 32.48352 | 132.73623 | 24019 ft | 390 kts | 224° |
| 2026-04-20 23:49 | 32.46238 | 132.71607 | 24019 ft | 389 kts | 224° |
| 2026-04-20 23:49 | 32.44129 | 132.69598 | 24026 ft | 389 kts | 224° |
| 2026-04-20 23:49 | 32.42021 | 132.67590 | 24028 ft | 389 kts | 224° |
| 2026-04-20 23:49 | 32.39918 | 132.65588 | 24031 ft | 388 kts | 224° |
| 2026-04-20 23:50 | 32.37813 | 132.63586 | 24035 ft | 388 kts | 224° |
| 2026-04-20 23:50 | 32.35707 | 132.61584 | 24035 ft | 388 kts | 224° |
| 2026-04-20 23:50 | 32.33601 | 132.59583 | 24026 ft | 389 kts | 224° |
| 2026-04-20 23:50 | 32.31491 | 132.57579 | 24029 ft | 389 kts | 224° |
| 2026-04-20 23:51 | 32.29376 | 132.55572 | 24039 ft | 390 kts | 224° |
| 2026-04-20 23:51 | 32.27260 | 132.53565 | 24043 ft | 391 kts | 224° |
| 2026-04-20 23:51 | 32.25134 | 132.51551 | 24045 ft | 391 kts | 224° |
| 2026-04-20 23:51 | 32.23011 | 132.49539 | 24044 ft | 392 kts | 224° |
| 2026-04-20 23:52 | 32.20884 | 132.47527 | 24044 ft | 392 kts | 224° |
| 2026-04-20 23:52 | 32.18755 | 132.45512 | 24027 ft | 392 kts | 223° |
| 2026-04-20 23:52 | 32.16627 | 132.43500 | 24040 ft | 392 kts | 224° |
| 2026-04-20 23:52 | 32.14497 | 132.41487 | 24046 ft | 393 kts | 223° |
| 2026-04-20 23:53 | 32.12362 | 132.39472 | 24052 ft | 393 kts | 223° |
| 2026-04-20 23:53 | 32.10229 | 132.37461 | 24051 ft | 393 kts | 223° |
| 2026-04-20 23:53 | 32.08116 | 132.35472 | 24052 ft | 394 kts | 223° |
| 2026-04-20 23:53 | 32.05946 | 132.33431 | 24051 ft | 394 kts | 223° |
| 2026-04-20 23:54 | 32.03807 | 132.31419 | 24035 ft | 394 kts | 223° |
| 2026-04-20 23:54 | 32.01692 | 132.29431 | 24041 ft | 394 kts | 223° |
| 2026-04-20 23:54 | 31.99546 | 132.27415 | 24054 ft | 395 kts | 223° |
| 2026-04-20 23:54 | 31.97401 | 132.25400 | 24060 ft | 395 kts | 223° |
| 2026-04-20 23:55 | 31.95249 | 132.23380 | 24049 ft | 396 kts | 223° |
| 2026-04-20 23:55 | 31.93099 | 132.21363 | 24057 ft | 396 kts | 223° |
| 2026-04-20 23:55 | 31.90943 | 132.19344 | 24063 ft | 396 kts | 223° |
| 2026-04-20 23:55 | 31.88786 | 132.17324 | 24042 ft | 396 kts | 223° |
| 2026-04-20 23:56 | 31.86630 | 132.15307 | 24052 ft | 396 kts | 223° |
| 2026-04-20 23:56 | 31.84477 | 132.13294 | 24053 ft | 395 kts | 223° |
| 2026-04-20 23:56 | 31.82324 | 132.11282 | 24052 ft | 395 kts | 223° |
| 2026-04-20 23:56 | 31.80174 | 132.09273 | 24053 ft | 395 kts | 223° |
| 2026-04-20 23:57 | 31.78024 | 132.07265 | 24048 ft | 395 kts | 223° |
| 2026-04-20 23:57 | 31.75878 | 132.05263 | 24051 ft | 394 kts | 223° |
| 2026-04-20 23:57 | 31.73731 | 132.03262 | 24041 ft | 392 kts | 223° |
| 2026-04-20 23:57 | 31.71602 | 132.01279 | 24041 ft | 390 kts | 223° |
| 2026-04-20 23:58 | 31.69482 | 131.99304 | 24042 ft | 388 kts | 224° |
| 2026-04-20 23:58 | 31.67375 | 131.97341 | 24048 ft | 386 kts | 223° |
| 2026-04-20 23:58 | 31.65269 | 131.95381 | 24042 ft | 386 kts | 223° |
| 2026-04-20 23:58 | 31.63172 | 131.93429 | 24049 ft | 385 kts | 223° |
| 2026-04-20 23:59 | 31.61071 | 131.91474 | 24051 ft | 386 kts | 223° |
| 2026-04-20 23:59 | 31.58963 | 131.89516 | 24043 ft | 386 kts | 224° |
| 2026-04-20 23:59 | 31.56859 | 131.87563 | 24047 ft | 386 kts | 224° |
| 2026-04-20 23:59 | 31.54752 | 131.85609 | 24049 ft | 387 kts | 224° |
| 2026-04-21 00:00 | 31.52639 | 131.83654 | 24046 ft | 387 kts | 224° |
| 2026-04-21 00:00 | 31.50525 | 131.81702 | 24049 ft | 387 kts | 224° |
| 2026-04-21 00:00 | 31.48408 | 131.79749 | 24050 ft | 387 kts | 224° |
| 2026-04-21 00:00 | 31.47010 | 131.78459 | 24045 ft | 387 kts | 224° |
| 2026-04-21 00:01 | 31.44896 | 131.76510 | 24030 ft | 387 kts | 224° |
| 2026-04-21 00:01 | 31.42782 | 131.74561 | 24033 ft | 387 kts | 224° |
| 2026-04-21 00:01 | 31.40670 | 131.72615 | 24036 ft | 386 kts | 224° |
| 2026-04-21 00:01 | 31.38557 | 131.70669 | 24039 ft | 386 kts | 224° |
| 2026-04-21 00:02 | 31.36446 | 131.68725 | 24044 ft | 386 kts | 224° |
| 2026-04-21 00:02 | 31.34333 | 131.66780 | 24041 ft | 386 kts | 224° |
| 2026-04-21 00:02 | 31.32223 | 131.64839 | 24040 ft | 386 kts | 224° |
| 2026-04-21 00:02 | 31.30113 | 131.62899 | 24040 ft | 386 kts | 224° |
| 2026-04-21 00:03 | 31.28001 | 131.60959 | 24038 ft | 385 kts | 223° |
| 2026-04-21 00:03 | 31.25902 | 131.59032 | 24037 ft | 383 kts | 223° |
| 2026-04-21 00:03 | 31.23813 | 131.57116 | 24035 ft | 381 kts | 223° |
| 2026-04-21 00:03 | 31.21725 | 131.55200 | 24030 ft | 381 kts | 224° |
| 2026-04-21 00:04 | 31.19642 | 131.53287 | 24045 ft | 381 kts | 224° |
| 2026-04-21 00:04 | 31.17556 | 131.51369 | 24053 ft | 382 kts | 224° |
| 2026-04-21 00:04 | 31.15462 | 131.49445 | 24047 ft | 384 kts | 224° |
| 2026-04-21 00:04 | 31.13361 | 131.47516 | 24041 ft | 385 kts | 224° |
| 2026-04-21 00:05 | 31.11251 | 131.45582 | 24050 ft | 386 kts | 224° |
| 2026-04-21 00:05 | 31.09139 | 131.43646 | 24035 ft | 387 kts | 224° |
| 2026-04-21 00:05 | 31.07023 | 131.41708 | 24047 ft | 387 kts | 224° |
| 2026-04-21 00:05 | 31.04906 | 131.39770 | 24034 ft | 387 kts | 224° |
| 2026-04-21 00:06 | 31.02788 | 131.37832 | 24044 ft | 386 kts | 224° |
| 2026-04-21 00:06 | 31.00676 | 131.35901 | 24035 ft | 386 kts | 224° |
| 2026-04-21 00:06 | 30.98564 | 131.33969 | 24040 ft | 386 kts | 224° |
| 2026-04-21 00:06 | 30.96452 | 131.32038 | 24049 ft | 385 kts | 224° |
| 2026-04-21 00:07 | 30.94344 | 131.30113 | 24042 ft | 385 kts | 224° |
| 2026-04-21 00:07 | 30.92241 | 131.28195 | 24045 ft | 384 kts | 224° |
| 2026-04-21 00:07 | 30.90139 | 131.26277 | 24045 ft | 383 kts | 224° |
| 2026-04-21 00:07 | 30.88044 | 131.24366 | 24043 ft | 383 kts | 224° |
| 2026-04-21 00:08 | 30.85950 | 131.22457 | 24044 ft | 382 kts | 224° |
| 2026-04-21 00:08 | 30.83853 | 131.20547 | 24041 ft | 382 kts | 224° |
| 2026-04-21 00:08 | 30.81762 | 131.18642 | 24032 ft | 381 kts | 223° |
| 2026-04-21 00:08 | 30.79673 | 131.16741 | 24036 ft | 381 kts | 223° |
| 2026-04-21 00:09 | 30.77616 | 131.14871 | 24045 ft | 381 kts | 223° |
| 2026-04-21 00:09 | 30.75530 | 131.12976 | 24055 ft | 380 kts | 223° |
| 2026-04-21 00:09 | 30.73437 | 131.11089 | 24053 ft | 381 kts | 223° |
| 2026-04-21 00:09 | 30.71314 | 131.09181 | 24054 ft | 381 kts | 223° |
| 2026-04-21 00:10 | 30.69246 | 131.07324 | 24051 ft | 381 kts | 223° |
| 2026-04-21 00:10 | 30.67147 | 131.05438 | 24030 ft | 382 kts | 223° |
| 2026-04-21 00:10 | 30.65046 | 131.03551 | 24038 ft | 382 kts | 223° |
| 2026-04-21 00:10 | 30.62947 | 131.01667 | 24048 ft | 382 kts | 223° |
| 2026-04-21 00:11 | 30.60817 | 130.99805 | 24038 ft | 384 kts | 220° |
| 2026-04-21 00:11 | 30.58544 | 130.98148 | 24049 ft | 389 kts | 214° |
| 2026-04-21 00:11 | 30.56128 | 130.96711 | 24053 ft | 391 kts | 213° |
| 2026-04-21 00:11 | 30.53707 | 130.95270 | 24044 ft | 391 kts | 213° |
| 2026-04-21 00:12 | 30.51291 | 130.93816 | 24047 ft | 391 kts | 214° |
| 2026-04-21 00:12 | 30.48875 | 130.92357 | 24034 ft | 391 kts | 213° |
| 2026-04-21 00:12 | 30.46462 | 130.90898 | 24046 ft | 392 kts | 213° |
| 2026-04-21 00:12 | 30.44044 | 130.89437 | 24054 ft | 392 kts | 213° |
| 2026-04-21 00:13 | 30.41630 | 130.87980 | 24056 ft | 392 kts | 213° |
| 2026-04-21 00:13 | 30.39211 | 130.86522 | 24064 ft | 392 kts | 213° |
| 2026-04-21 00:13 | 30.36791 | 130.85062 | 24053 ft | 392 kts | 213° |
| 2026-04-21 00:13 | 30.34372 | 130.83605 | 24048 ft | 392 kts | 213° |
| 2026-04-21 00:14 | 30.31954 | 130.82149 | 24037 ft | 391 kts | 214° |
| 2026-04-21 00:14 | 30.29537 | 130.80695 | 24047 ft | 391 kts | 214° |
| 2026-04-21 00:14 | 30.27126 | 130.79244 | 24050 ft | 391 kts | 214° |
| 2026-04-21 00:14 | 30.24714 | 130.77792 | 24047 ft | 391 kts | 214° |
| 2026-04-21 00:15 | 30.22300 | 130.76340 | 24050 ft | 391 kts | 214° |
| 2026-04-21 00:15 | 30.19883 | 130.74887 | 24055 ft | 391 kts | 213° |
| 2026-04-21 00:15 | 30.17469 | 130.73436 | 24061 ft | 392 kts | 213° |
| 2026-04-21 00:15 | 30.15049 | 130.71983 | 24032 ft | 392 kts | 213° |
| 2026-04-21 00:16 | 30.12623 | 130.70526 | 24055 ft | 393 kts | 213° |
| 2026-04-21 00:16 | 30.10192 | 130.69068 | 24060 ft | 394 kts | 213° |
| 2026-04-21 00:16 | 30.07752 | 130.67604 | 24059 ft | 395 kts | 213° |
| 2026-04-21 00:16 | 30.05308 | 130.66140 | 24045 ft | 396 kts | 213° |
| 2026-04-21 00:17 | 30.02861 | 130.64675 | 24055 ft | 396 kts | 213° |
| 2026-04-21 00:17 | 30.00414 | 130.63211 | 24055 ft | 396 kts | 213° |
| 2026-04-21 00:17 | 29.97996 | 130.61768 | 24035 ft | 396 kts | 213° |
| 2026-04-21 00:17 | 29.95548 | 130.60308 | 24047 ft | 396 kts | 213° |
| 2026-04-21 00:18 | 29.93104 | 130.58853 | 24050 ft | 396 kts | 213° |
| 2026-04-21 00:18 | 29.90657 | 130.57396 | 24052 ft | 396 kts | 213° |
| 2026-04-21 00:18 | 29.88212 | 130.55940 | 24057 ft | 396 kts | 213° |
| 2026-04-21 00:18 | 29.85767 | 130.54485 | 24058 ft | 396 kts | 213° |
| 2026-04-21 00:19 | 29.83320 | 130.53029 | 24057 ft | 396 kts | 213° |
| 2026-04-21 00:19 | 29.80873 | 130.51574 | 24058 ft | 396 kts | 213° |
| 2026-04-21 00:19 | 29.78424 | 130.50119 | 24043 ft | 396 kts | 213° |
| 2026-04-21 00:19 | 29.75975 | 130.48664 | 24051 ft | 397 kts | 213° |
| 2026-04-21 00:20 | 29.73518 | 130.47205 | 24065 ft | 398 kts | 213° |
| 2026-04-21 00:20 | 29.71057 | 130.45744 | 24069 ft | 398 kts | 213° |
| 2026-04-21 00:20 | 29.68597 | 130.44286 | 24067 ft | 398 kts | 213° |
| 2026-04-21 00:20 | 29.66135 | 130.42827 | 24062 ft | 398 kts | 213° |
| 2026-04-21 00:21 | 29.63672 | 130.41368 | 24062 ft | 398 kts | 213° |
| 2026-04-21 00:21 | 29.61215 | 130.39914 | 24045 ft | 397 kts | 213° |
| 2026-04-21 00:21 | 29.58760 | 130.38461 | 24055 ft | 397 kts | 213° |
| 2026-04-21 00:21 | 29.56303 | 130.37009 | 24058 ft | 397 kts | 213° |
| 2026-04-21 00:22 | 29.53883 | 130.35578 | 24061 ft | 397 kts | 213° |
| 2026-04-21 00:22 | 29.51396 | 130.34109 | 24063 ft | 397 kts | 212° |
| 2026-04-21 00:22 | 29.48939 | 130.32658 | 24062 ft | 397 kts | 212° |
| 2026-04-21 00:22 | 29.46484 | 130.31209 | 24066 ft | 397 kts | 212° |
| 2026-04-21 00:23 | 29.44055 | 130.29776 | 24063 ft | 398 kts | 212° |
| 2026-04-21 00:23 | 29.41560 | 130.28306 | 24066 ft | 398 kts | 212° |
| 2026-04-21 00:23 | 29.39132 | 130.26875 | 24063 ft | 398 kts | 212° |
| 2026-04-21 00:23 | 29.36667 | 130.25424 | 24067 ft | 398 kts | 212° |
| 2026-04-21 00:24 | 29.34204 | 130.23973 | 24068 ft | 398 kts | 213° |
| 2026-04-21 00:24 | 29.31737 | 130.22523 | 24064 ft | 398 kts | 213° |
| 2026-04-21 00:24 | 29.29273 | 130.21074 | 24061 ft | 398 kts | 213° |
| 2026-04-21 00:24 | 29.26806 | 130.19627 | 24070 ft | 398 kts | 213° |
| 2026-04-21 00:25 | 29.24339 | 130.18180 | 24052 ft | 398 kts | 212° |
| 2026-04-21 00:25 | 29.21876 | 130.16737 | 24062 ft | 398 kts | 212° |
| 2026-04-21 00:25 | 29.19415 | 130.15294 | 24069 ft | 398 kts | 212° |
| 2026-04-21 00:25 | 29.16949 | 130.13850 | 24070 ft | 398 kts | 212° |
| 2026-04-21 00:26 | 29.14485 | 130.12407 | 24068 ft | 398 kts | 212° |
| 2026-04-21 00:26 | 29.12018 | 130.10963 | 24071 ft | 398 kts | 212° |
| 2026-04-21 00:26 | 29.09550 | 130.09519 | 24069 ft | 399 kts | 212° |
| 2026-04-21 00:26 | 29.07079 | 130.08075 | 24057 ft | 399 kts | 212° |
| 2026-04-21 00:27 | 29.04611 | 130.06632 | 24062 ft | 399 kts | 212° |
| 2026-04-21 00:27 | 29.02138 | 130.05188 | 24067 ft | 399 kts | 212° |
| 2026-04-21 00:27 | 28.99666 | 130.03745 | 24069 ft | 399 kts | 212° |
| 2026-04-21 00:27 | 28.97190 | 130.02301 | 24071 ft | 400 kts | 212° |
| 2026-04-21 00:28 | 28.94714 | 130.00857 | 24069 ft | 400 kts | 212° |
| 2026-04-21 00:28 | 28.92237 | 129.99414 | 24068 ft | 400 kts | 212° |
| 2026-04-21 00:28 | 28.89758 | 129.97970 | 24068 ft | 400 kts | 212° |
| 2026-04-21 00:28 | 28.87281 | 129.96528 | 24057 ft | 400 kts | 212° |
| 2026-04-21 00:29 | 28.84803 | 129.95086 | 24066 ft | 400 kts | 212° |
| 2026-04-21 00:29 | 28.82329 | 129.93647 | 24070 ft | 400 kts | 212° |
| 2026-04-21 00:29 | 28.79850 | 129.92205 | 24072 ft | 400 kts | 212° |
| 2026-04-21 00:29 | 28.77373 | 129.90766 | 24071 ft | 400 kts | 212° |
| 2026-04-21 00:30 | 28.74893 | 129.89326 | 24069 ft | 400 kts | 212° |
| 2026-04-21 00:30 | 28.72411 | 129.87886 | 24069 ft | 400 kts | 212° |
| 2026-04-21 00:30 | 28.69933 | 129.86445 | 24055 ft | 400 kts | 212° |
| 2026-04-21 00:30 | 28.67450 | 129.85001 | 24059 ft | 400 kts | 212° |
| 2026-04-21 00:31 | 28.64972 | 129.83559 | 24060 ft | 400 kts | 212° |
| 2026-04-21 00:31 | 28.62491 | 129.82116 | 24062 ft | 401 kts | 212° |
| 2026-04-21 00:31 | 28.60005 | 129.80672 | 24060 ft | 401 kts | 212° |
| 2026-04-21 00:31 | 28.57522 | 129.79230 | 24057 ft | 401 kts | 212° |
| 2026-04-21 00:32 | 28.55032 | 129.77785 | 24053 ft | 401 kts | 212° |
| 2026-04-21 00:32 | 28.52544 | 129.76341 | 24049 ft | 401 kts | 212° |
| 2026-04-21 00:32 | 28.50056 | 129.74898 | 24036 ft | 401 kts | 212° |
| 2026-04-21 00:32 | 28.47573 | 129.73460 | 24042 ft | 401 kts | 212° |
| 2026-04-21 00:33 | 28.45114 | 129.71972 | 24055 ft | 398 kts | 216° |
| 2026-04-21 00:33 | 28.42841 | 129.70269 | 24050 ft | 395 kts | 220° |
| 2026-04-21 00:33 | 28.40699 | 129.68329 | 24050 ft | 392 kts | 225° |
| 2026-04-21 00:33 | 28.38679 | 129.66251 | 24048 ft | 392 kts | 225° |
| 2026-04-21 00:34 | 28.36651 | 129.64176 | 24046 ft | 393 kts | 225° |
| 2026-04-21 00:34 | 28.34614 | 129.62103 | 24052 ft | 393 kts | 225° |
| 2026-04-21 00:34 | 28.32580 | 129.60037 | 24046 ft | 393 kts | 225° |
| 2026-04-21 00:34 | 28.30540 | 129.57970 | 24052 ft | 393 kts | 225° |
| 2026-04-21 00:35 | 28.28501 | 129.55906 | 24062 ft | 393 kts | 225° |
| 2026-04-21 00:35 | 28.26460 | 129.53841 | 24063 ft | 393 kts | 225° |
| 2026-04-21 00:35 | 28.24416 | 129.51776 | 24061 ft | 393 kts | 225° |
| 2026-04-21 00:35 | 28.22376 | 129.49714 | 24068 ft | 393 kts | 225° |
| 2026-04-21 00:36 | 28.20331 | 129.47649 | 24071 ft | 393 kts | 225° |
| 2026-04-21 00:36 | 28.18285 | 129.45585 | 24073 ft | 393 kts | 225° |
| 2026-04-21 00:36 | 28.16246 | 129.43520 | 24068 ft | 394 kts | 225° |
| 2026-04-21 00:36 | 28.14205 | 129.41450 | 24070 ft | 394 kts | 225° |
| 2026-04-21 00:37 | 28.12165 | 129.39379 | 24081 ft | 394 kts | 225° |
| 2026-04-21 00:37 | 28.10119 | 129.37304 | 24084 ft | 395 kts | 225° |
| 2026-04-21 00:37 | 28.08073 | 129.35229 | 24081 ft | 395 kts | 225° |
| 2026-04-21 00:37 | 28.06028 | 129.33156 | 24078 ft | 395 kts | 225° |
| 2026-04-21 00:38 | 28.03975 | 129.31079 | 24078 ft | 395 kts | 225° |
| 2026-04-21 00:38 | 28.01927 | 129.29007 | 24082 ft | 395 kts | 225° |
| 2026-04-21 00:38 | 27.99876 | 129.26933 | 24082 ft | 395 kts | 225° |
| 2026-04-21 00:38 | 27.97827 | 129.24862 | 24073 ft | 395 kts | 225° |
| 2026-04-21 00:39 | 27.95774 | 129.22788 | 24080 ft | 396 kts | 225° |
| 2026-04-21 00:39 | 27.93720 | 129.20714 | 24083 ft | 396 kts | 225° |
| 2026-04-21 00:39 | 27.91669 | 129.18644 | 24083 ft | 397 kts | 225° |
| 2026-04-21 00:39 | 27.89603 | 129.16560 | 24082 ft | 397 kts | 225° |
| 2026-04-21 00:40 | 27.87544 | 129.14484 | 24080 ft | 397 kts | 225° |
| 2026-04-21 00:40 | 27.85478 | 129.12402 | 24082 ft | 397 kts | 225° |
| 2026-04-21 00:40 | 27.83418 | 129.10328 | 24087 ft | 397 kts | 225° |
| 2026-04-21 00:40 | 27.81355 | 129.08251 | 24069 ft | 398 kts | 225° |
| 2026-04-21 00:41 | 27.79319 | 129.06194 | 24077 ft | 398 kts | 225° |
| 2026-04-21 00:41 | 27.77255 | 129.04106 | 24082 ft | 398 kts | 225° |
| 2026-04-21 00:41 | 27.75193 | 129.02020 | 24086 ft | 398 kts | 225° |
| 2026-04-21 00:41 | 27.73128 | 128.99931 | 24085 ft | 399 kts | 225° |
| 2026-04-21 00:42 | 27.71033 | 128.97815 | 24086 ft | 399 kts | 225° |
| 2026-04-21 00:42 | 27.68965 | 128.95726 | 24084 ft | 399 kts | 225° |
| 2026-04-21 00:42 | 27.66925 | 128.93668 | 24080 ft | 399 kts | 225° |
| 2026-04-21 00:42 | 27.64855 | 128.91580 | 24076 ft | 399 kts | 225° |
| 2026-04-21 00:43 | 27.62786 | 128.89494 | 24071 ft | 399 kts | 225° |
| 2026-04-21 00:43 | 27.60720 | 128.87412 | 24070 ft | 398 kts | 225° |
| 2026-04-21 00:43 | 27.58651 | 128.85329 | 24064 ft | 398 kts | 225° |
| 2026-04-21 00:43 | 27.56587 | 128.83251 | 24057 ft | 398 kts | 225° |
| 2026-04-21 00:44 | 27.54520 | 128.81172 | 24057 ft | 398 kts | 225° |
| 2026-04-21 00:44 | 27.52456 | 128.79095 | 24056 ft | 398 kts | 225° |
| 2026-04-21 00:44 | 27.50390 | 128.77018 | 24048 ft | 398 kts | 225° |
| 2026-04-21 00:45 | 27.46265 | 128.72859 | 24045 ft | 397 kts | 226° |
| 2026-04-21 00:45 | 27.44433 | 128.70552 | 24038 ft | 395 kts | 235° |
| 2026-04-21 00:45 | 27.42885 | 128.68005 | 24050 ft | 394 kts | 240° |
| 2026-04-21 00:45 | 27.41569 | 128.65312 | 24093 ft | 393 kts | 246° |
| 2026-04-21 00:46 | 27.40512 | 128.62476 | 24091 ft | 393 kts | 248° |
| 2026-04-21 00:46 | 27.39484 | 128.59628 | 24092 ft | 394 kts | 248° |
| 2026-04-21 00:46 | 27.38467 | 128.56805 | 24095 ft | 395 kts | 248° |
| 2026-04-21 00:46 | 27.37426 | 128.53920 | 24447 ft | 400 kts | 248° |
| 2026-04-21 00:47 | 27.36374 | 128.51022 | 24987 ft | 400 kts | 248° |
| 2026-04-21 00:47 | 27.35319 | 128.48124 | 25514 ft | 402 kts | 249° |
| 2026-04-21 00:47 | 27.34253 | 128.45209 | 25994 ft | 405 kts | 249° |
| 2026-04-21 00:47 | 27.33175 | 128.42267 | 26409 ft | 409 kts | 249° |
| 2026-04-21 00:48 | 27.32084 | 128.39297 | 26831 ft | 413 kts | 249° |
| 2026-04-21 00:48 | 27.30983 | 128.36304 | 27296 ft | 416 kts | 249° |
| 2026-04-21 00:48 | 27.29874 | 128.33291 | 27767 ft | 419 kts | 249° |
| 2026-04-21 00:48 | 27.28754 | 128.30251 | 28219 ft | 422 kts | 249° |
| 2026-04-21 00:49 | 27.27625 | 128.27190 | 28660 ft | 425 kts | 249° |
| 2026-04-21 00:49 | 27.26872 | 128.25149 | 28950 ft | 428 kts | 249° |
| 2026-04-21 00:49 | 27.25729 | 128.22054 | 29391 ft | 431 kts | 249° |
| 2026-04-21 00:49 | 27.24575 | 128.18930 | 29837 ft | 434 kts | 249° |
| 2026-04-21 00:50 | 27.23015 | 128.14712 | 30088 ft | 442 kts | 249° |
| 2026-04-21 00:50 | 27.22233 | 128.12599 | 30086 ft | 441 kts | 249° |
| 2026-04-21 00:50 | 27.19900 | 128.06307 | 30080 ft | 435 kts | 249° |
| 2026-04-21 00:51 | 27.17565 | 128.00020 | 30085 ft | 436 kts | 249° |
| 2026-04-21 00:51 | 27.15225 | 127.93724 | 30090 ft | 437 kts | 249° |
| 2026-04-21 00:52 | 27.12881 | 127.87429 | 30100 ft | 437 kts | 249° |
| 2026-04-21 00:52 | 27.10534 | 127.81138 | 30095 ft | 436 kts | 249° |
| 2026-04-21 00:53 | 27.08188 | 127.74859 | 30094 ft | 436 kts | 249° |
| 2026-04-21 00:53 | 27.05844 | 127.68595 | 30103 ft | 435 kts | 249° |
| 2026-04-21 00:54 | 27.03497 | 127.62332 | 30104 ft | 435 kts | 249° |
| 2026-04-21 00:54 | 27.01146 | 127.56071 | 30105 ft | 435 kts | 249° |
| 2026-04-21 00:55 | 26.98795 | 127.49817 | 30086 ft | 436 kts | 249° |
| 2026-04-21 00:55 | 26.96438 | 127.43556 | 30092 ft | 436 kts | 249° |
| 2026-04-21 00:56 | 26.94074 | 127.37291 | 30102 ft | 436 kts | 249° |
| 2026-04-21 00:56 | 26.91709 | 127.31031 | 30101 ft | 436 kts | 249° |
| 2026-04-21 00:57 | 26.89356 | 127.24812 | 30095 ft | 436 kts | 249° |
| 2026-04-21 00:57 | 26.86969 | 127.18514 | 30099 ft | 436 kts | 249° |
| 2026-04-21 00:58 | 26.84612 | 127.12304 | 30099 ft | 437 kts | 249° |
| 2026-04-21 00:58 | 26.82233 | 127.06046 | 30099 ft | 436 kts | 249° |
| 2026-04-21 00:59 | 26.79853 | 126.99797 | 30095 ft | 436 kts | 249° |
| 2026-04-21 00:59 | 26.77469 | 126.93545 | 30104 ft | 437 kts | 248° |
| 2026-04-21 01:00 | 26.75085 | 126.87301 | 30105 ft | 437 kts | 248° |
| 2026-04-21 01:00 | 26.72694 | 126.81052 | 30104 ft | 437 kts | 248° |
| 2026-04-21 01:01 | 26.70303 | 126.74812 | 30100 ft | 437 kts | 248° |
| 2026-04-21 01:01 | 26.67908 | 126.68570 | 30087 ft | 437 kts | 248° |
| 2026-04-21 01:02 | 26.65511 | 126.62333 | 30102 ft | 437 kts | 248° |
| 2026-04-21 01:02 | 26.63110 | 126.56094 | 30104 ft | 437 kts | 248° |
| 2026-04-21 01:03 | 26.61526 | 126.49598 | 30117 ft | 435 kts | 263° |
| 2026-04-21 01:03 | 26.61449 | 126.42849 | 30103 ft | 437 kts | 275° |
| 2026-04-21 01:04 | 26.62208 | 126.36113 | 30105 ft | 437 kts | 276° |
| 2026-04-21 01:04 | 26.62946 | 126.29394 | 30096 ft | 431 kts | 275° |
| 2026-04-21 01:05 | 26.63290 | 126.26133 | 30091 ft | 412 kts | 275° |
| 2026-04-21 01:05 | 26.63615 | 126.23014 | 30075 ft | 396 kts | 275° |
| 2026-04-21 01:05 | 26.64235 | 126.16962 | 30105 ft | 392 kts | 275° |
| 2026-04-21 01:06 | 26.64852 | 126.10903 | 30108 ft | 393 kts | 275° |
| 2026-04-21 01:06 | 26.65470 | 126.04839 | 30107 ft | 393 kts | 275° |
| 2026-04-21 01:07 | 26.66083 | 125.98763 | 30105 ft | 393 kts | 275° |
| 2026-04-21 01:07 | 26.66682 | 125.92699 | 30110 ft | 393 kts | 277° |
| 2026-04-21 01:08 | 26.67988 | 125.86763 | 30110 ft | 395 kts | 287° |
| 2026-04-21 01:08 | 26.70137 | 125.81102 | 30107 ft | 398 kts | 295° |
| 2026-04-21 01:09 | 26.73126 | 125.75865 | 30111 ft | 402 kts | 303° |
| 2026-04-21 01:09 | 26.76932 | 125.71243 | 30109 ft | 408 kts | 315° |
| 2026-04-21 01:10 | 26.81340 | 125.67223 | 30118 ft | 411 kts | 320° |
| 2026-04-21 01:10 | 26.86253 | 125.63950 | 30122 ft | 416 kts | 328° |
| 2026-04-21 01:11 | 26.91678 | 125.61539 | 30116 ft | 424 kts | 339° |
| 2026-04-21 01:11 | 26.97489 | 125.60184 | 30117 ft | 431 kts | 348° |
| 2026-04-21 01:12 | 27.03524 | 125.60029 | 30115 ft | 437 kts | 358° |
| 2026-04-21 01:12 | 27.09551 | 125.61114 | 30112 ft | 443 kts | 11° |
| 2026-04-21 01:13 | 27.15376 | 125.63411 | 30129 ft | 448 kts | 21° |
| 2026-04-21 01:13 | 27.20757 | 125.67009 | 30127 ft | 454 kts | 32° |
| 2026-04-21 01:14 | 27.25505 | 125.71746 | 30116 ft | 459 kts | 43° |
| 2026-04-21 01:14 | 27.29477 | 125.77401 | 30125 ft | 463 kts | 54° |
| 2026-04-21 01:15 | 27.32512 | 125.83820 | 30123 ft | 468 kts | 66° |
| 2026-04-21 01:15 | 27.34549 | 125.90792 | 30121 ft | 471 kts | 75° |
| 2026-04-21 01:16 | 27.35570 | 125.98070 | 30119 ft | 472 kts | 85° |
| 2026-04-21 01:16 | 27.35550 | 126.05440 | 30121 ft | 471 kts | 95° |
| 2026-04-21 01:17 | 27.34382 | 126.12658 | 30118 ft | 469 kts | 108° |
| 2026-04-21 01:17 | 27.32037 | 126.19463 | 30122 ft | 466 kts | 119° |
| 2026-04-21 01:18 | 27.28661 | 126.25625 | 30098 ft | 460 kts | 131° |
| 2026-04-21 01:18 | 27.24355 | 126.30867 | 30118 ft | 455 kts | 142° |
| 2026-04-21 01:19 | 27.19406 | 126.35153 | 30110 ft | 450 kts | 153° |
| 2026-04-21 01:19 | 27.13885 | 126.38320 | 30112 ft | 443 kts | 163° |
| 2026-04-21 01:20 | 27.08035 | 126.40296 | 30110 ft | 437 kts | 172° |
| 2026-04-21 01:20 | 27.02073 | 126.41339 | 30124 ft | 430 kts | 182° |
| 2026-04-21 01:21 | 26.96134 | 126.41215 | 30092 ft | 423 kts | 191° |
| 2026-04-21 01:21 | 26.90417 | 126.39975 | 30108 ft | 415 kts | 202° |
| 2026-04-21 01:22 | 26.85038 | 126.37745 | 30103 ft | 409 kts | 211° |
| 2026-04-21 01:22 | 26.80178 | 126.34535 | 30115 ft | 404 kts | 219° |
| 2026-04-21 01:23 | 26.76038 | 126.30385 | 30107 ft | 398 kts | 231° |
| 2026-04-21 01:23 | 26.72662 | 126.25523 | 30108 ft | 394 kts | 238° |
| 2026-04-21 01:24 | 26.69933 | 126.20221 | 30108 ft | 393 kts | 246° |
| 2026-04-21 01:24 | 26.68003 | 126.14526 | 30106 ft | 392 kts | 252° |
| 2026-04-21 01:25 | 26.66734 | 126.08617 | 30104 ft | 391 kts | 263° |
| 2026-04-21 01:25 | 26.66115 | 126.02574 | 30106 ft | 392 kts | 263° |
| 2026-04-21 01:26 | 26.65689 | 125.96510 | 30110 ft | 392 kts | 270° |
| 2026-04-21 01:26 | 26.66481 | 125.90514 | 30108 ft | 394 kts | 288° |
| 2026-04-21 01:27 | 26.68738 | 125.84908 | 30120 ft | 396 kts | 289° |
| 2026-04-21 01:27 | 26.71079 | 125.79310 | 30114 ft | 400 kts | 296° |
| 2026-04-21 01:28 | 26.74306 | 125.74185 | 30097 ft | 406 kts | 307° |
| 2026-04-21 01:28 | 26.78441 | 125.69829 | 30113 ft | 410 kts | 315° |
| 2026-04-21 01:29 | 26.82972 | 125.65994 | 30114 ft | 414 kts | 324° |
| 2026-04-21 01:29 | 26.88094 | 125.62985 | 30117 ft | 419 kts | 332° |
| 2026-04-21 01:30 | 26.93677 | 125.60960 | 30122 ft | 425 kts | 341° |
| 2026-04-21 01:30 | 26.99569 | 125.59986 | 30123 ft | 433 kts | 352° |
| 2026-04-21 01:31 | 27.05632 | 125.60254 | 30116 ft | 439 kts | 3° |
| 2026-04-21 01:31 | 27.11606 | 125.61790 | 30134 ft | 443 kts | 13° |
| 2026-04-21 01:32 | 27.17306 | 125.64536 | 30114 ft | 449 kts | 25° |
| 2026-04-21 01:32 | 27.22477 | 125.68533 | 30131 ft | 455 kts | 38° |
| 2026-04-21 01:33 | 27.26979 | 125.73576 | 30115 ft | 460 kts | 47° |
| 2026-04-21 01:33 | 27.30633 | 125.79509 | 30116 ft | 464 kts | 59° |
| 2026-04-21 01:34 | 27.33274 | 125.86144 | 30120 ft | 467 kts | 69° |
| 2026-04-21 01:34 | 27.34983 | 125.93200 | 30111 ft | 469 kts | 80° |
| 2026-04-21 01:35 | 27.35702 | 126.00483 | 30115 ft | 469 kts | 88° |
| 2026-04-21 01:35 | 27.35313 | 126.07794 | 30130 ft | 468 kts | 99° |
| 2026-04-21 01:36 | 27.34094 | 126.13710 | 30119 ft | 466 kts | 109° |
| 2026-04-21 01:36 | 27.31614 | 126.20415 | 30128 ft | 464 kts | 121° |
| 2026-04-21 01:37 | 27.28091 | 126.26437 | 30107 ft | 459 kts | 133° |
| 2026-04-21 01:37 | 27.23669 | 126.31556 | 30126 ft | 455 kts | 143° |
| 2026-04-21 01:38 | 27.18584 | 126.35705 | 30104 ft | 449 kts | 155° |
| 2026-04-21 01:38 | 27.12987 | 126.38711 | 30112 ft | 443 kts | 165° |
| 2026-04-21 01:39 | 27.07097 | 126.40544 | 30122 ft | 438 kts | 173° |
| 2026-04-21 01:39 | 27.01110 | 126.41376 | 30116 ft | 430 kts | 185° |
| 2026-04-21 01:40 | 26.95191 | 126.41089 | 30094 ft | 422 kts | 193° |
| 2026-04-21 01:40 | 26.89521 | 126.39659 | 30108 ft | 414 kts | 202° |
| 2026-04-21 01:41 | 26.84217 | 126.37283 | 30109 ft | 408 kts | 212° |
| 2026-04-21 01:41 | 26.79471 | 126.33962 | 30109 ft | 403 kts | 221° |
| 2026-04-21 01:42 | 26.75460 | 126.29668 | 30104 ft | 398 kts | 232° |
| 2026-04-21 01:42 | 26.72183 | 126.24725 | 30114 ft | 395 kts | 239° |
| 2026-04-21 01:43 | 26.69580 | 126.19352 | 30106 ft | 393 kts | 248° |
| 2026-04-21 01:43 | 26.67738 | 126.13616 | 30104 ft | 392 kts | 254° |
| 2026-04-21 01:44 | 26.66632 | 126.07673 | 30106 ft | 391 kts | 263° |
| 2026-04-21 01:44 | 26.66013 | 126.01631 | 30104 ft | 391 kts | 263° |
| 2026-04-21 01:45 | 26.65708 | 125.95559 | 30102 ft | 392 kts | 271° |
| 2026-04-21 01:45 | 26.66803 | 125.89627 | 30117 ft | 395 kts | 291° |
| 2026-04-21 01:46 | 26.69057 | 125.84012 | 30108 ft | 395 kts | 289° |
| 2026-04-21 01:46 | 26.71514 | 125.78467 | 30110 ft | 401 kts | 297° |
| 2026-04-21 01:47 | 26.74892 | 125.73449 | 30106 ft | 408 kts | 309° |
| 2026-04-21 01:47 | 26.79130 | 125.69182 | 30112 ft | 411 kts | 315° |
| 2026-04-21 01:48 | 26.83803 | 125.65446 | 30108 ft | 416 kts | 326° |
| 2026-04-21 01:48 | 26.89006 | 125.62566 | 30115 ft | 421 kts | 333° |
| 2026-04-21 01:49 | 26.94660 | 125.60701 | 30120 ft | 426 kts | 342° |
| 2026-04-21 01:49 | 27.00609 | 125.59958 | 30131 ft | 435 kts | 355° |
| 2026-04-21 01:50 | 27.06669 | 125.60424 | 30109 ft | 439 kts | 5° |
| 2026-04-21 01:50 | 27.12572 | 125.62144 | 30123 ft | 444 kts | 15° |
| 2026-04-21 01:51 | 27.18186 | 125.65097 | 30127 ft | 449 kts | 27° |
| 2026-04-21 01:51 | 27.23233 | 125.69292 | 30125 ft | 456 kts | 40° |
| 2026-04-21 01:52 | 27.29481 | 125.77408 | 30115 ft | 462 kts | 54° |
| 2026-04-21 01:53 | 27.32506 | 125.83804 | 30120 ft | 465 kts | 66° |
| 2026-04-21 01:53 | 27.34531 | 125.90716 | 30112 ft | 466 kts | 75° |
| 2026-04-21 01:54 | 27.35557 | 125.97911 | 30110 ft | 466 kts | 84° |
| 2026-04-21 01:54 | 27.35564 | 126.05194 | 30117 ft | 466 kts | 95° |
| 2026-04-21 01:55 | 27.34459 | 126.12350 | 30122 ft | 465 kts | 108° |
| 2026-04-21 01:55 | 27.32188 | 126.19136 | 30119 ft | 463 kts | 118° |
| 2026-04-21 01:56 | 27.28869 | 126.25306 | 30106 ft | 460 kts | 130° |
| 2026-04-21 01:56 | 27.24607 | 126.30614 | 30112 ft | 456 kts | 142° |
| 2026-04-21 01:57 | 27.19638 | 126.34989 | 30110 ft | 452 kts | 152° |
| 2026-04-21 01:57 | 27.14100 | 126.38219 | 30104 ft | 446 kts | 162° |
| 2026-04-21 01:58 | 27.08229 | 126.40245 | 30121 ft | 439 kts | 171° |
| 2026-04-21 01:58 | 27.02239 | 126.41327 | 30122 ft | 433 kts | 181° |
| 2026-04-21 01:59 | 26.96282 | 126.41228 | 30100 ft | 424 kts | 191° |
| 2026-04-21 01:59 | 26.90545 | 126.40018 | 30104 ft | 415 kts | 202° |
| 2026-04-21 02:00 | 26.85159 | 126.37809 | 30103 ft | 409 kts | 210° |
| 2026-04-21 02:00 | 26.80292 | 126.34625 | 30109 ft | 403 kts | 219° |
| 2026-04-21 02:01 | 26.76136 | 126.30501 | 30104 ft | 397 kts | 231° |
| 2026-04-21 02:01 | 26.72743 | 126.25659 | 30107 ft | 394 kts | 238° |
| 2026-04-21 02:02 | 26.70014 | 126.20413 | 30104 ft | 393 kts | 246° |
| 2026-04-21 02:02 | 26.68064 | 126.14724 | 30105 ft | 392 kts | 252° |
| 2026-04-21 02:03 | 26.66758 | 126.08819 | 30105 ft | 392 kts | 262° |
| 2026-04-21 02:03 | 26.66134 | 126.02766 | 30101 ft | 392 kts | 263° |
| 2026-04-21 02:04 | 26.65689 | 125.96703 | 30101 ft | 392 kts | 269° |
| 2026-04-21 02:04 | 26.66427 | 125.90690 | 30096 ft | 394 kts | 288° |
| 2026-04-21 02:05 | 26.68678 | 125.85067 | 30106 ft | 397 kts | 289° |
| 2026-04-21 02:05 | 26.70999 | 125.79461 | 30110 ft | 400 kts | 296° |
| 2026-04-21 02:06 | 26.74204 | 125.74318 | 30100 ft | 407 kts | 307° |
| 2026-04-21 02:06 | 26.78331 | 125.69930 | 30112 ft | 412 kts | 315° |
| 2026-04-21 02:07 | 26.82905 | 125.66039 | 30107 ft | 416 kts | 324° |
| 2026-04-21 02:07 | 26.88047 | 125.63006 | 30113 ft | 421 kts | 332° |
| 2026-04-21 02:08 | 26.93651 | 125.60967 | 30120 ft | 426 kts | 341° |
| 2026-04-21 02:08 | 26.99565 | 125.59985 | 30118 ft | 434 kts | 353° |
| 2026-04-21 02:09 | 27.05623 | 125.60253 | 30101 ft | 438 kts | 3° |
| 2026-04-21 02:09 | 27.11594 | 125.61786 | 30123 ft | 442 kts | 13° |
| 2026-04-21 02:10 | 27.17277 | 125.64519 | 30112 ft | 447 kts | 25° |
| 2026-04-21 02:10 | 27.22441 | 125.68491 | 30114 ft | 454 kts | 38° |
| 2026-04-21 02:11 | 27.26941 | 125.73530 | 30109 ft | 460 kts | 47° |
| 2026-04-21 02:11 | 27.30606 | 125.79454 | 30110 ft | 464 kts | 59° |
| 2026-04-21 02:12 | 27.33249 | 125.86068 | 30115 ft | 465 kts | 69° |
| 2026-04-21 02:12 | 27.34961 | 125.93068 | 30114 ft | 465 kts | 80° |
| 2026-04-21 02:13 | 27.35694 | 126.00241 | 30118 ft | 465 kts | 88° |
| 2026-04-21 02:13 | 27.35349 | 126.07485 | 30127 ft | 464 kts | 99° |
| 2026-04-21 02:14 | 27.33857 | 126.14547 | 30112 ft | 465 kts | 110° |
| 2026-04-21 02:14 | 27.31245 | 126.21177 | 30120 ft | 464 kts | 122° |
| 2026-04-21 02:15 | 27.27601 | 126.27108 | 30099 ft | 460 kts | 133° |
| 2026-04-21 02:15 | 27.23081 | 126.32129 | 30106 ft | 455 kts | 143° |
| 2026-04-21 02:16 | 27.17912 | 126.36125 | 30114 ft | 449 kts | 155° |
| 2026-04-21 02:16 | 27.12272 | 126.39000 | 30123 ft | 443 kts | 166° |
| 2026-04-21 02:17 | 27.06354 | 126.40721 | 30099 ft | 437 kts | 174° |
| 2026-04-21 02:17 | 27.00360 | 126.41380 | 30096 ft | 430 kts | 186° |
| 2026-04-21 02:18 | 26.94449 | 126.40967 | 30090 ft | 422 kts | 194° |
| 2026-04-21 02:18 | 26.88814 | 126.39405 | 30104 ft | 414 kts | 202° |
| 2026-04-21 02:19 | 26.83566 | 126.36901 | 30104 ft | 408 kts | 213° |
| 2026-04-21 02:19 | 26.78862 | 126.33433 | 30102 ft | 403 kts | 223° |
| 2026-04-21 02:20 | 26.74959 | 126.29019 | 30095 ft | 398 kts | 233° |
| 2026-04-21 02:20 | 26.71764 | 126.24010 | 30109 ft | 395 kts | 240° |
| 2026-04-21 02:21 | 26.69278 | 126.18559 | 30107 ft | 393 kts | 250° |
| 2026-04-21 02:21 | 26.67519 | 126.12777 | 30102 ft | 393 kts | 255° |
| 2026-04-21 02:22 | 26.66545 | 126.06779 | 30101 ft | 393 kts | 263° |
| 2026-04-21 02:22 | 26.66025 | 126.01740 | 30097 ft | 393 kts | 263° |
| 2026-04-21 02:23 | 26.65704 | 125.95650 | 30102 ft | 393 kts | 271° |
| 2026-04-21 02:23 | 26.66159 | 125.91594 | 30086 ft | 394 kts | 284° |
| 2026-04-21 02:23 | 26.66775 | 125.89682 | 30107 ft | 397 kts | 291° |
| 2026-04-21 02:24 | 26.69051 | 125.84039 | 30101 ft | 397 kts | 289° |
| 2026-04-21 02:24 | 26.71515 | 125.78465 | 30105 ft | 403 kts | 297° |
| 2026-04-21 02:25 | 26.74908 | 125.73424 | 30102 ft | 409 kts | 309° |
| 2026-04-21 02:25 | 26.79169 | 125.69143 | 30105 ft | 413 kts | 315° |
| 2026-04-21 02:26 | 26.83873 | 125.65400 | 30101 ft | 418 kts | 326° |
| 2026-04-21 02:26 | 26.89074 | 125.62533 | 30109 ft | 423 kts | 334° |
| 2026-04-21 02:27 | 26.94756 | 125.60677 | 30109 ft | 429 kts | 343° |
| 2026-04-21 02:27 | 27.00731 | 125.59957 | 30124 ft | 437 kts | 355° |
| 2026-04-21 02:28 | 27.06808 | 125.60448 | 30111 ft | 440 kts | 5° |
| 2026-04-21 02:28 | 27.12753 | 125.62217 | 30111 ft | 444 kts | 15° |
| 2026-04-21 02:29 | 27.18367 | 125.65215 | 30127 ft | 450 kts | 27° |
| 2026-04-21 02:29 | 27.23398 | 125.69462 | 30112 ft | 457 kts | 40° |
| 2026-04-21 02:30 | 27.27778 | 125.74688 | 30113 ft | 462 kts | 51° |
| 2026-04-21 02:30 | 27.31245 | 125.80780 | 30105 ft | 464 kts | 61° |
| 2026-04-21 02:31 | 27.33685 | 125.87496 | 30099 ft | 465 kts | 70° |
| 2026-04-21 02:31 | 27.35168 | 125.94558 | 30112 ft | 464 kts | 81° |
| 2026-04-21 02:32 | 27.35720 | 126.01778 | 30117 ft | 464 kts | 91° |
| 2026-04-21 02:32 | 27.35136 | 126.09004 | 30109 ft | 465 kts | 102° |
| 2026-04-21 02:33 | 27.33403 | 126.16007 | 30100 ft | 466 kts | 113° |
| 2026-04-21 02:33 | 27.30532 | 126.22512 | 30101 ft | 463 kts | 125° |
| 2026-04-21 02:34 | 27.26705 | 126.28264 | 30098 ft | 457 kts | 136° |
| 2026-04-21 02:34 | 27.22056 | 126.33061 | 30099 ft | 452 kts | 146° |
| 2026-04-21 02:35 | 27.16827 | 126.36780 | 30111 ft | 446 kts | 156° |
| 2026-04-21 02:35 | 27.11144 | 126.39413 | 30099 ft | 440 kts | 168° |
| 2026-04-21 02:36 | 27.05215 | 126.40950 | 30101 ft | 435 kts | 176° |
| 2026-04-21 02:36 | 26.99223 | 126.41367 | 30104 ft | 429 kts | 186° |
| 2026-04-21 02:37 | 26.93341 | 126.40755 | 30100 ft | 421 kts | 195° |
| 2026-04-21 02:37 | 26.87758 | 126.39014 | 30105 ft | 414 kts | 204° |
| 2026-04-21 02:38 | 26.82599 | 126.36299 | 30103 ft | 407 kts | 214° |
| 2026-04-21 02:38 | 26.78028 | 126.32635 | 30084 ft | 402 kts | 226° |
| 2026-04-21 02:39 | 26.74270 | 126.28077 | 30099 ft | 397 kts | 234° |
| 2026-04-21 02:39 | 26.71199 | 126.22966 | 30090 ft | 395 kts | 242° |
| 2026-04-21 02:40 | 26.68894 | 126.17414 | 30100 ft | 393 kts | 251° |
| 2026-04-21 02:40 | 26.67244 | 126.11581 | 30098 ft | 394 kts | 257° |
| 2026-04-21 02:41 | 26.66421 | 126.05535 | 30096 ft | 394 kts | 263° |
| 2026-04-21 02:41 | 26.65789 | 125.99446 | 30093 ft | 394 kts | 264° |
| 2026-04-21 02:42 | 26.65872 | 125.93322 | 30100 ft | 395 kts | 276° |
| 2026-04-21 02:42 | 26.66509 | 125.90383 | 30097 ft | 397 kts | 289° |
| 2026-04-21 02:42 | 26.67666 | 125.87567 | 30104 ft | 400 kts | 293° |
| 2026-04-21 02:43 | 26.69900 | 125.81874 | 30095 ft | 401 kts | 292° |
| 2026-04-21 02:43 | 26.72711 | 125.76440 | 30092 ft | 407 kts | 303° |
| 2026-04-21 02:44 | 26.76484 | 125.71669 | 30100 ft | 413 kts | 314° |
| 2026-04-21 02:44 | 26.80930 | 125.67563 | 30099 ft | 416 kts | 319° |
| 2026-04-21 02:45 | 26.85889 | 125.64159 | 30110 ft | 420 kts | 327° |
| 2026-04-21 02:45 | 26.91317 | 125.61652 | 30104 ft | 427 kts | 339° |
| 2026-04-21 02:46 | 26.97154 | 125.60227 | 30106 ft | 433 kts | 348° |
| 2026-04-21 02:46 | 27.03215 | 125.60008 | 30097 ft | 439 kts | 358° |
| 2026-04-21 02:47 | 27.09280 | 125.61033 | 30112 ft | 444 kts | 11° |
| 2026-04-21 02:47 | 27.15141 | 125.63291 | 30093 ft | 448 kts | 21° |
| 2026-04-21 02:48 | 27.20545 | 125.66849 | 30097 ft | 454 kts | 33° |
| 2026-04-21 02:48 | 27.25323 | 125.71535 | 30105 ft | 459 kts | 43° |
| 2026-04-21 02:49 | 27.29337 | 125.77162 | 30111 ft | 463 kts | 54° |
| 2026-04-21 02:49 | 27.32404 | 125.83531 | 30103 ft | 464 kts | 66° |
| 2026-04-21 02:50 | 27.34460 | 125.90410 | 30097 ft | 464 kts | 75° |
| 2026-04-21 02:50 | 27.35528 | 125.97560 | 30111 ft | 464 kts | 84° |
| 2026-04-21 02:51 | 27.35587 | 126.04803 | 30108 ft | 463 kts | 95° |
| 2026-04-21 02:51 | 27.34555 | 126.11963 | 30111 ft | 466 kts | 108° |
| 2026-04-21 02:52 | 27.32329 | 126.18811 | 30106 ft | 467 kts | 118° |
| 2026-04-21 02:52 | 27.29040 | 126.25048 | 30094 ft | 457 kts | 129° |
| 2026-04-21 02:53 | 27.24885 | 126.30322 | 30089 ft | 454 kts | 141° |
| 2026-04-21 02:53 | 27.19969 | 126.34743 | 30092 ft | 451 kts | 150° |
| 2026-04-21 02:54 | 27.14473 | 126.38049 | 30098 ft | 445 kts | 161° |
| 2026-04-21 02:54 | 27.08629 | 126.40136 | 30096 ft | 438 kts | 171° |
| 2026-04-21 02:55 | 27.02664 | 126.41291 | 30103 ft | 432 kts | 180° |
| 2026-04-21 02:55 | 26.96708 | 126.41272 | 30083 ft | 425 kts | 189° |
| 2026-04-21 02:56 | 26.90952 | 126.40150 | 30096 ft | 416 kts | 200° |
| 2026-04-21 02:56 | 26.83002 | 126.36559 | 30099 ft | 408 kts | 213° |
| 2026-04-21 02:57 | 26.78361 | 126.32964 | 30067 ft | 403 kts | 224° |
| 2026-04-21 02:57 | 26.74532 | 126.28445 | 30088 ft | 399 kts | 233° |
| 2026-04-21 02:58 | 26.71405 | 126.23361 | 30096 ft | 396 kts | 241° |
| 2026-04-21 02:58 | 26.69027 | 126.17829 | 30097 ft | 394 kts | 251° |
| 2026-04-21 02:59 | 26.67336 | 126.12003 | 30093 ft | 394 kts | 256° |
| 2026-04-21 02:59 | 26.66466 | 126.05997 | 30091 ft | 395 kts | 263° |
| 2026-04-21 03:00 | 26.65830 | 125.99892 | 30094 ft | 395 kts | 263° |
| 2026-04-21 03:00 | 26.65826 | 125.93751 | 30091 ft | 397 kts | 275° |
| 2026-04-21 03:01 | 26.66386 | 125.90747 | 30085 ft | 398 kts | 288° |
| 2026-04-21 03:01 | 26.67512 | 125.87906 | 30093 ft | 402 kts | 293° |
| 2026-04-21 03:01 | 26.69768 | 125.82196 | 30088 ft | 403 kts | 292° |
| 2026-04-21 03:02 | 26.72533 | 125.76710 | 30090 ft | 409 kts | 302° |
| 2026-04-21 03:02 | 26.76275 | 125.71880 | 30099 ft | 414 kts | 313° |
| 2026-04-21 03:03 | 26.80718 | 125.67743 | 30093 ft | 416 kts | 318° |
| 2026-04-21 03:03 | 26.85657 | 125.64296 | 30108 ft | 420 kts | 327° |
| 2026-04-21 03:04 | 26.91078 | 125.61732 | 30107 ft | 427 kts | 338° |
| 2026-04-21 03:04 | 26.96914 | 125.60259 | 30093 ft | 434 kts | 348° |
| 2026-04-21 03:05 | 27.02986 | 125.59999 | 30100 ft | 439 kts | 358° |
| 2026-04-21 03:05 | 27.09070 | 125.60972 | 30103 ft | 445 kts | 10° |
| 2026-04-21 03:06 | 27.14942 | 125.63190 | 30116 ft | 448 kts | 20° |
| 2026-04-21 03:06 | 27.20369 | 125.66710 | 30109 ft | 454 kts | 32° |
| 2026-04-21 03:07 | 27.25180 | 125.71372 | 30102 ft | 460 kts | 43° |
| 2026-04-21 03:07 | 27.29220 | 125.76970 | 30111 ft | 464 kts | 54° |
| 2026-04-21 03:08 | 27.32324 | 125.83320 | 30102 ft | 465 kts | 66° |
| 2026-04-21 03:08 | 27.34409 | 125.90192 | 30095 ft | 464 kts | 75° |
| 2026-04-21 03:09 | 27.35508 | 125.97342 | 30102 ft | 464 kts | 84° |
| 2026-04-21 03:09 | 27.35601 | 126.04583 | 30097 ft | 463 kts | 95° |
| 2026-04-21 03:10 | 27.34607 | 126.11744 | 30096 ft | 465 kts | 107° |
| 2026-04-21 03:10 | 27.32422 | 126.18594 | 30099 ft | 466 kts | 118° |
| 2026-04-21 03:11 | 27.29163 | 126.24851 | 30098 ft | 461 kts | 128° |
| 2026-04-21 03:11 | 27.24988 | 126.30218 | 30086 ft | 452 kts | 141° |
| 2026-04-21 03:12 | 27.20992 | 126.33949 | 30092 ft | 447 kts | 148° |
| 2026-04-21 03:12 | 27.14759 | 126.37906 | 30098 ft | 441 kts | 161° |
| 2026-04-21 03:13 | 27.09934 | 126.39782 | 30088 ft | 437 kts | 170° |
| 2026-04-21 03:13 | 27.04001 | 126.41142 | 30093 ft | 434 kts | 178° |
| 2026-04-21 03:14 | 26.98055 | 126.41344 | 30095 ft | 428 kts | 186° |
| 2026-04-21 03:14 | 26.92216 | 126.40497 | 30083 ft | 420 kts | 197° |
| 2026-04-21 03:15 | 26.86696 | 126.38575 | 30088 ft | 412 kts | 206° |
| 2026-04-21 03:15 | 26.81645 | 126.35658 | 30081 ft | 407 kts | 217° |
| 2026-04-21 03:16 | 26.77229 | 126.31784 | 30086 ft | 401 kts | 228° |
| 2026-04-21 03:16 | 26.73607 | 126.27077 | 30085 ft | 398 kts | 237° |
| 2026-04-21 03:17 | 26.70661 | 126.21866 | 30086 ft | 396 kts | 244° |
| 2026-04-21 03:17 | 26.68519 | 126.16209 | 30088 ft | 395 kts | 251° |
| 2026-04-21 03:18 | 26.66988 | 126.10304 | 30092 ft | 396 kts | 258° |
| 2026-04-21 03:18 | 26.66283 | 126.04194 | 30087 ft | 397 kts | 263° |
| 2026-04-21 03:19 | 26.65710 | 125.98064 | 30085 ft | 397 kts | 267° |
| 2026-04-21 03:19 | 26.66086 | 125.91917 | 30062 ft | 398 kts | 282° |
| 2026-04-21 03:20 | 26.68256 | 125.86180 | 30090 ft | 403 kts | 291° |
| 2026-04-21 03:20 | 26.70531 | 125.80456 | 30093 ft | 405 kts | 294° |
| 2026-04-21 03:21 | 26.73600 | 125.75127 | 30102 ft | 411 kts | 304° |
| 2026-04-21 03:21 | 26.77647 | 125.70558 | 30089 ft | 416 kts | 316° |
| 2026-04-21 03:22 | 26.82198 | 125.66552 | 30084 ft | 418 kts | 322° |
| 2026-04-21 03:22 | 26.87310 | 125.63366 | 30090 ft | 423 kts | 331° |
| 2026-04-21 03:23 | 26.92901 | 125.61173 | 30101 ft | 430 kts | 341° |
| 2026-04-21 03:23 | 26.98829 | 125.60033 | 30105 ft | 436 kts | 351° |
| 2026-04-21 03:24 | 27.04934 | 125.60156 | 30097 ft | 441 kts | 2° |
| 2026-04-21 03:24 | 27.10960 | 125.61571 | 30096 ft | 445 kts | 12° |
| 2026-04-21 03:25 | 27.16722 | 125.64178 | 30096 ft | 450 kts | 25° |
| 2026-04-21 03:25 | 27.21941 | 125.68036 | 30107 ft | 456 kts | 36° |
| 2026-04-21 03:26 | 27.26532 | 125.72994 | 30101 ft | 461 kts | 46° |
| 2026-04-21 03:26 | 27.30291 | 125.78847 | 30100 ft | 463 kts | 58° |
| 2026-04-21 03:27 | 27.33040 | 125.85403 | 30103 ft | 465 kts | 70° |
| 2026-04-21 03:27 | 27.34850 | 125.92365 | 30091 ft | 465 kts | 79° |
| 2026-04-21 03:28 | 27.35670 | 125.99556 | 30095 ft | 464 kts | 87° |
| 2026-04-21 03:28 | 27.35426 | 126.06794 | 30110 ft | 463 kts | 98° |
| 2026-04-21 03:29 | 27.34046 | 126.13877 | 30096 ft | 465 kts | 109° |
| 2026-04-21 03:29 | 27.31540 | 126.20569 | 30097 ft | 464 kts | 121° |
| 2026-04-21 03:30 | 27.27994 | 126.26575 | 30075 ft | 457 kts | 132° |
| 2026-04-21 03:30 | 27.23588 | 126.31630 | 30098 ft | 450 kts | 142° |
| 2026-04-21 03:31 | 27.18553 | 126.35720 | 30078 ft | 444 kts | 155° |
| 2026-04-21 03:31 | 27.13018 | 126.38697 | 30106 ft | 439 kts | 164° |
| 2026-04-21 03:32 | 27.07212 | 126.40516 | 30096 ft | 436 kts | 172° |
| 2026-04-21 03:32 | 27.01249 | 126.41374 | 30090 ft | 430 kts | 184° |
| 2026-04-21 03:33 | 26.95314 | 126.41105 | 30081 ft | 423 kts | 192° |
| 2026-04-21 03:33 | 26.89635 | 126.39701 | 30091 ft | 415 kts | 202° |
| 2026-04-21 03:34 | 26.84313 | 126.37342 | 30091 ft | 409 kts | 211° |
| 2026-04-21 03:34 | 26.79517 | 126.34001 | 30093 ft | 404 kts | 220° |
| 2026-04-21 03:35 | 26.75475 | 126.29691 | 30084 ft | 400 kts | 231° |
| 2026-04-21 03:35 | 26.72173 | 126.24715 | 30092 ft | 398 kts | 238° |
| 2026-04-21 03:36 | 26.69552 | 126.19292 | 30091 ft | 397 kts | 247° |
| 2026-04-21 03:36 | 26.67702 | 126.13489 | 30088 ft | 396 kts | 253° |
| 2026-04-21 03:37 | 26.66607 | 126.07450 | 30083 ft | 397 kts | 263° |
| 2026-04-21 03:37 | 26.65979 | 126.01316 | 30078 ft | 398 kts | 262° |
| 2026-04-21 03:38 | 26.65719 | 125.95146 | 30085 ft | 399 kts | 272° |
| 2026-04-21 03:38 | 26.66978 | 125.89134 | 30098 ft | 404 kts | 292° |
| 2026-04-21 03:39 | 26.69293 | 125.83411 | 30075 ft | 404 kts | 290° |
| 2026-04-21 03:39 | 26.71881 | 125.77790 | 30080 ft | 410 kts | 299° |
| 2026-04-21 03:40 | 26.75447 | 125.72773 | 30086 ft | 415 kts | 310° |
| 2026-04-21 03:40 | 26.79825 | 125.68531 | 30086 ft | 416 kts | 316° |
| 2026-04-21 03:41 | 26.84663 | 125.64907 | 30081 ft | 421 kts | 326° |
| 2026-04-21 03:41 | 26.89995 | 125.62139 | 30093 ft | 426 kts | 335° |
| 2026-04-21 03:42 | 26.95773 | 125.60454 | 30089 ft | 433 kts | 346° |
| 2026-04-21 03:42 | 27.01826 | 125.59966 | 30106 ft | 440 kts | 356° |
| 2026-04-21 03:43 | 27.07933 | 125.60682 | 30100 ft | 443 kts | 7° |
| 2026-04-21 03:43 | 27.13859 | 125.62681 | 30101 ft | 447 kts | 18° |
| 2026-04-21 03:44 | 27.19355 | 125.65924 | 30096 ft | 453 kts | 30° |
| 2026-04-21 03:44 | 27.24277 | 125.70389 | 30104 ft | 458 kts | 40° |
| 2026-04-21 03:45 | 27.28488 | 125.75782 | 30088 ft | 462 kts | 53° |
| 2026-04-21 03:45 | 27.31776 | 125.81975 | 30094 ft | 463 kts | 63° |
| 2026-04-21 03:46 | 27.34049 | 125.88764 | 30092 ft | 464 kts | 72° |
| 2026-04-21 03:46 | 27.35342 | 125.95866 | 30093 ft | 464 kts | 82° |
| 2026-04-21 03:47 | 27.35684 | 126.03110 | 30081 ft | 464 kts | 94° |
| 2026-04-21 03:47 | 27.34909 | 126.10309 | 30088 ft | 464 kts | 104° |
| 2026-04-21 03:48 | 27.32966 | 126.17217 | 30084 ft | 463 kts | 116° |
| 2026-04-21 03:48 | 27.29925 | 126.23572 | 30088 ft | 460 kts | 126° |
| 2026-04-21 03:49 | 27.25967 | 126.29147 | 30085 ft | 454 kts | 138° |
| 2026-04-21 03:49 | 27.21239 | 126.33754 | 30086 ft | 448 kts | 148° |
| 2026-04-21 03:50 | 27.15920 | 126.37302 | 30093 ft | 442 kts | 158° |
| 2026-04-21 03:50 | 27.10210 | 126.39702 | 30092 ft | 436 kts | 170° |
| 2026-04-21 03:51 | 27.04304 | 126.41101 | 30080 ft | 432 kts | 177° |
| 2026-04-21 03:51 | 26.98385 | 126.41351 | 30070 ft | 426 kts | 186° |
| 2026-04-21 03:52 | 26.92563 | 126.40579 | 30085 ft | 418 kts | 196° |
| 2026-04-21 03:52 | 26.87037 | 126.38725 | 30083 ft | 412 kts | 205° |
| 2026-04-21 03:53 | 26.81954 | 126.35873 | 30086 ft | 407 kts | 215° |
| 2026-04-21 03:53 | 26.77485 | 126.32062 | 30062 ft | 402 kts | 226° |
| 2026-04-21 03:54 | 26.73803 | 126.27386 | 30075 ft | 400 kts | 236° |
| 2026-04-21 03:54 | 26.70806 | 126.22173 | 30062 ft | 398 kts | 243° |
| 2026-04-21 03:55 | 26.68610 | 126.16505 | 30090 ft | 397 kts | 251° |
| 2026-04-21 03:55 | 26.67039 | 126.10587 | 30088 ft | 398 kts | 258° |
| 2026-04-21 03:56 | 26.66304 | 126.04443 | 30087 ft | 398 kts | 263° |
| 2026-04-21 03:56 | 26.66103 | 125.98253 | 30083 ft | 400 kts | 272° |
| 2026-04-21 03:57 | 26.66759 | 125.92068 | 30073 ft | 402 kts | 278° |
| 2026-04-21 03:57 | 26.67902 | 125.87025 | 30070 ft | 404 kts | 287° |
| 2026-04-21 03:58 | 26.70531 | 125.80283 | 30075 ft | 408 kts | 296° |
| 2026-04-21 03:58 | 26.73720 | 125.75006 | 30101 ft | 412 kts | 305° |
| 2026-04-21 03:59 | 26.77779 | 125.70431 | 30085 ft | 417 kts | 316° |
| 2026-04-21 04:00 | 26.84011 | 125.65312 | 30083 ft | 422 kts | 326° |
| 2026-04-21 04:00 | 26.89300 | 125.62431 | 30084 ft | 427 kts | 334° |
| 2026-04-21 04:01 | 26.95050 | 125.60602 | 30096 ft | 433 kts | 344° |
| 2026-04-21 04:01 | 27.01101 | 125.59954 | 30104 ft | 441 kts | 356° |
| 2026-04-21 04:02 | 27.07219 | 125.60530 | 30096 ft | 443 kts | 6° |
| 2026-04-21 04:02 | 27.13175 | 125.62387 | 30086 ft | 446 kts | 17° |
| 2026-04-21 04:03 | 27.18761 | 125.65488 | 30091 ft | 451 kts | 29° |
| 2026-04-21 04:03 | 27.23746 | 125.69828 | 30102 ft | 457 kts | 40° |
| 2026-04-21 04:04 | 27.28062 | 125.75113 | 30085 ft | 461 kts | 52° |
| 2026-04-21 04:04 | 27.31434 | 125.81199 | 30085 ft | 463 kts | 62° |
| 2026-04-21 04:05 | 27.33815 | 125.87928 | 30094 ft | 464 kts | 71° |
| 2026-04-21 04:05 | 27.35230 | 125.95009 | 30085 ft | 464 kts | 81° |
| 2026-04-21 04:06 | 27.35714 | 126.02246 | 30086 ft | 464 kts | 92° |
| 2026-04-21 04:06 | 27.35065 | 126.09451 | 30095 ft | 464 kts | 102° |
| 2026-04-21 04:07 | 27.33265 | 126.16400 | 30058 ft | 460 kts | 114° |
| 2026-04-21 04:07 | 27.31964 | 126.19656 | 29783 ft | 454 kts | 119° |
| 2026-04-21 04:07 | 27.30403 | 126.22728 | 29359 ft | 451 kts | 126° |
| 2026-04-21 04:07 | 27.28691 | 126.25674 | 28963 ft | 450 kts | 126° |
| 2026-04-21 04:08 | 27.26995 | 126.28620 | 28624 ft | 448 kts | 126° |
| 2026-04-21 04:08 | 27.25304 | 126.31551 | 28296 ft | 446 kts | 126° |
| 2026-04-21 04:08 | 27.23623 | 126.34464 | 27999 ft | 443 kts | 126° |
| 2026-04-21 04:08 | 27.21950 | 126.37363 | 27698 ft | 441 kts | 126° |
| 2026-04-21 04:09 | 27.20288 | 126.40242 | 27401 ft | 439 kts | 126° |
| 2026-04-21 04:09 | 27.18633 | 126.43109 | 27155 ft | 435 kts | 126° |
| 2026-04-21 04:09 | 27.16993 | 126.45952 | 27108 ft | 433 kts | 126° |
| 2026-04-21 04:09 | 27.15327 | 126.48830 | 27100 ft | 447 kts | 126° |
| 2026-04-21 04:10 | 27.13605 | 126.51802 | 27096 ft | 462 kts | 126° |
| 2026-04-21 04:10 | 27.11828 | 126.54869 | 27100 ft | 475 kts | 126° |
| 2026-04-21 04:10 | 27.10002 | 126.58022 | 27093 ft | 488 kts | 126° |
| 2026-04-21 04:10 | 27.08132 | 126.61253 | 27091 ft | 499 kts | 126° |
| 2026-04-21 04:11 | 27.06222 | 126.64553 | 27091 ft | 508 kts | 126° |
| 2026-04-21 04:11 | 27.04294 | 126.67883 | 27085 ft | 509 kts | 126° |
| 2026-04-21 04:11 | 27.02367 | 126.71211 | 27074 ft | 508 kts | 126° |
| 2026-04-21 04:11 | 27.00438 | 126.74535 | 27069 ft | 508 kts | 126° |
| 2026-04-21 04:12 | 26.98511 | 126.77851 | 27061 ft | 508 kts | 126° |
| 2026-04-21 04:12 | 26.96752 | 126.81258 | 27061 ft | 507 kts | 115° |
| 2026-04-21 04:12 | 26.95838 | 126.85096 | 27075 ft | 515 kts | 97° |
| 2026-04-21 04:12 | 26.95871 | 126.89119 | 27080 ft | 520 kts | 81° |
| 2026-04-21 04:13 | 26.96794 | 126.93020 | 27076 ft | 516 kts | 71° |
| 2026-04-21 04:13 | 26.97937 | 126.96849 | 27078 ft | 520 kts | 71° |
| 2026-04-21 04:13 | 26.99049 | 127.00718 | 27077 ft | 523 kts | 72° |
| 2026-04-21 04:13 | 27.00134 | 127.04614 | 27076 ft | 525 kts | 72° |
| 2026-04-21 04:14 | 27.01198 | 127.08528 | 27074 ft | 525 kts | 72° |
| 2026-04-21 04:14 | 27.02247 | 127.12444 | 27069 ft | 523 kts | 73° |
| 2026-04-21 04:14 | 27.03287 | 127.16351 | 27078 ft | 521 kts | 73° |
| 2026-04-21 04:14 | 27.04306 | 127.20191 | 27073 ft | 520 kts | 73° |
| 2026-04-21 04:15 | 27.05335 | 127.24069 | 27063 ft | 518 kts | 73° |
| 2026-04-21 04:15 | 27.06364 | 127.27941 | 27064 ft | 518 kts | 73° |
| 2026-04-21 04:15 | 27.07394 | 127.31817 | 27069 ft | 519 kts | 73° |
| 2026-04-21 04:15 | 27.08424 | 127.35696 | 27074 ft | 519 kts | 73° |
| 2026-04-21 04:16 | 27.09456 | 127.39584 | 27070 ft | 520 kts | 73° |
| 2026-04-21 04:16 | 27.10489 | 127.43480 | 27070 ft | 521 kts | 73° |
| 2026-04-21 04:16 | 27.11521 | 127.47379 | 27069 ft | 521 kts | 73° |
| 2026-04-21 04:16 | 27.12553 | 127.51284 | 27059 ft | 522 kts | 73° |
| 2026-04-21 04:17 | 27.13586 | 127.55195 | 27065 ft | 523 kts | 73° |
| 2026-04-21 04:17 | 27.14618 | 127.59112 | 27083 ft | 523 kts | 73° |
| 2026-04-21 04:17 | 27.15648 | 127.63020 | 27073 ft | 522 kts | 73° |
| 2026-04-21 04:17 | 27.16676 | 127.66928 | 27069 ft | 522 kts | 73° |
| 2026-04-21 04:18 | 27.17702 | 127.70835 | 27067 ft | 521 kts | 73° |
| 2026-04-21 04:18 | 27.18726 | 127.74736 | 27057 ft | 521 kts | 73° |
| 2026-04-21 04:18 | 27.19750 | 127.78644 | 27063 ft | 522 kts | 73° |
| 2026-04-21 04:18 | 27.20773 | 127.82555 | 27069 ft | 522 kts | 73° |
| 2026-04-21 04:19 | 27.21798 | 127.86473 | 27068 ft | 523 kts | 73° |
| 2026-04-21 04:19 | 27.22822 | 127.90395 | 27067 ft | 524 kts | 73° |
| 2026-04-21 04:19 | 27.23846 | 127.94323 | 27065 ft | 524 kts | 73° |
| 2026-04-21 04:19 | 27.24868 | 127.98248 | 27069 ft | 524 kts | 73° |
| 2026-04-21 04:20 | 27.25890 | 128.02179 | 27070 ft | 524 kts | 73° |
| 2026-04-21 04:20 | 27.26912 | 128.06113 | 27069 ft | 524 kts | 73° |
| 2026-04-21 04:20 | 27.27932 | 128.10043 | 27062 ft | 524 kts | 73° |
| 2026-04-21 04:20 | 27.28951 | 128.13977 | 27059 ft | 524 kts | 73° |
| 2026-04-21 04:21 | 27.29966 | 128.17900 | 27061 ft | 523 kts | 73° |
| 2026-04-21 04:21 | 27.30982 | 128.21831 | 27055 ft | 523 kts | 73° |
| 2026-04-21 04:21 | 27.31997 | 128.25763 | 27060 ft | 524 kts | 73° |
| 2026-04-21 04:21 | 27.33011 | 128.29695 | 27057 ft | 524 kts | 73° |
| 2026-04-21 04:22 | 27.34024 | 128.33629 | 27060 ft | 524 kts | 73° |
| 2026-04-21 04:22 | 27.35038 | 128.37573 | 27061 ft | 524 kts | 73° |
| 2026-04-21 04:22 | 27.36050 | 128.41514 | 27074 ft | 524 kts | 73° |
| 2026-04-21 04:22 | 27.37059 | 128.45449 | 27068 ft | 524 kts | 73° |
| 2026-04-21 04:23 | 27.38054 | 128.49334 | 27066 ft | 523 kts | 73° |
| 2026-04-21 04:23 | 27.39075 | 128.53324 | 27056 ft | 523 kts | 73° |
| 2026-04-21 04:23 | 27.40078 | 128.57249 | 27054 ft | 523 kts | 73° |
| 2026-04-21 04:23 | 27.41069 | 128.61133 | 27057 ft | 522 kts | 73° |
| 2026-04-21 04:24 | 27.42152 | 128.65077 | 27057 ft | 520 kts | 68° |
| 2026-04-21 04:24 | 27.43688 | 128.68696 | 27057 ft | 519 kts | 57° |
| 2026-04-21 04:24 | 27.45720 | 128.72042 | 27054 ft | 518 kts | 49° |
| 2026-04-21 04:24 | 27.48139 | 128.75031 | 27052 ft | 514 kts | 39° |
| 2026-04-21 04:25 | 27.50827 | 128.77673 | 27045 ft | 513 kts | 37° |
| 2026-04-21 04:25 | 27.53538 | 128.80299 | 27051 ft | 514 kts | 38° |
| 2026-04-21 04:25 | 27.56241 | 128.82942 | 27053 ft | 514 kts | 38° |
| 2026-04-21 04:25 | 27.58929 | 128.85604 | 27052 ft | 515 kts | 38° |
| 2026-04-21 04:26 | 27.61602 | 128.88281 | 27057 ft | 514 kts | 39° |
| 2026-04-21 04:26 | 27.64273 | 128.90972 | 27046 ft | 514 kts | 39° |
| 2026-04-21 04:26 | 27.66936 | 128.93663 | 27053 ft | 514 kts | 39° |
| 2026-04-21 04:26 | 27.69599 | 128.96355 | 27055 ft | 514 kts | 39° |
| 2026-04-21 04:27 | 27.72267 | 128.99051 | 27055 ft | 514 kts | 39° |
| 2026-04-21 04:27 | 27.74933 | 129.01746 | 27055 ft | 514 kts | 39° |
| 2026-04-21 04:27 | 27.77597 | 129.04440 | 27052 ft | 514 kts | 39° |
| 2026-04-21 04:27 | 27.80261 | 129.07135 | 27055 ft | 514 kts | 39° |
| 2026-04-21 04:28 | 27.82923 | 129.09828 | 27070 ft | 514 kts | 38° |
| 2026-04-21 04:28 | 27.85593 | 129.12522 | 27060 ft | 514 kts | 38° |
| 2026-04-21 04:28 | 27.88262 | 129.15208 | 27056 ft | 514 kts | 38° |
| 2026-04-21 04:28 | 27.90930 | 129.17894 | 27051 ft | 514 kts | 38° |
| 2026-04-21 04:29 | 27.93600 | 129.20584 | 27052 ft | 514 kts | 38° |
| 2026-04-21 04:29 | 27.96263 | 129.23271 | 27053 ft | 514 kts | 38° |
| 2026-04-21 04:29 | 27.98931 | 129.25965 | 27052 ft | 514 kts | 38° |
| 2026-04-21 04:29 | 28.01593 | 129.28657 | 27064 ft | 513 kts | 38° |
| 2026-04-21 04:30 | 28.04256 | 129.31351 | 27057 ft | 513 kts | 38° |
| 2026-04-21 04:30 | 28.06916 | 129.34045 | 27050 ft | 513 kts | 38° |
| 2026-04-21 04:30 | 28.09577 | 129.36741 | 27049 ft | 513 kts | 38° |
| 2026-04-21 04:30 | 28.12236 | 129.39437 | 27060 ft | 513 kts | 38° |
| 2026-04-21 04:31 | 28.14896 | 129.42136 | 27057 ft | 514 kts | 38° |
| 2026-04-21 04:31 | 28.17556 | 129.44836 | 27066 ft | 514 kts | 38° |
| 2026-04-21 04:31 | 28.20221 | 129.47540 | 27055 ft | 514 kts | 38° |
| 2026-04-21 04:31 | 28.22890 | 129.50237 | 27056 ft | 514 kts | 38° |
| 2026-04-21 04:32 | 28.25561 | 129.52931 | 27042 ft | 514 kts | 38° |
| 2026-04-21 04:32 | 28.28228 | 129.55623 | 27036 ft | 513 kts | 38° |
| 2026-04-21 04:32 | 28.30894 | 129.58317 | 27029 ft | 513 kts | 38° |
| 2026-04-21 04:32 | 28.33563 | 129.61018 | 27017 ft | 514 kts | 38° |
| 2026-04-21 04:33 | 28.36228 | 129.63720 | 27029 ft | 514 kts | 38° |
| 2026-04-21 04:33 | 28.38857 | 129.66385 | 27015 ft | 514 kts | 38° |
| 2026-04-21 04:33 | 28.41552 | 129.69052 | 27026 ft | 513 kts | 35° |
| 2026-04-21 04:33 | 28.44415 | 129.71451 | 27035 ft | 510 kts | 30° |
| 2026-04-21 04:34 | 28.47438 | 129.73526 | 27013 ft | 506 kts | 23° |
| 2026-04-21 04:34 | 28.50580 | 129.75314 | 27034 ft | 505 kts | 22° |
| 2026-04-21 04:34 | 28.53724 | 129.77079 | 27029 ft | 505 kts | 22° |
| 2026-04-21 04:34 | 28.56876 | 129.78866 | 27028 ft | 505 kts | 22° |
| 2026-04-21 04:35 | 28.60013 | 129.80668 | 27027 ft | 505 kts | 22° |
| 2026-04-21 04:35 | 28.63144 | 129.82483 | 27032 ft | 506 kts | 22° |
| 2026-04-21 04:35 | 28.66280 | 129.84309 | 27042 ft | 506 kts | 22° |
| 2026-04-21 04:35 | 28.69414 | 129.86136 | 27050 ft | 506 kts | 22° |
| 2026-04-21 04:36 | 28.72544 | 129.87959 | 27066 ft | 506 kts | 22° |
| 2026-04-21 04:36 | 28.75676 | 129.89781 | 27061 ft | 505 kts | 22° |
| 2026-04-21 04:36 | 28.78808 | 129.91599 | 27056 ft | 505 kts | 22° |
| 2026-04-21 04:36 | 28.81933 | 129.93413 | 27058 ft | 504 kts | 22° |
| 2026-04-21 04:37 | 28.85062 | 129.95231 | 27060 ft | 504 kts | 22° |
| 2026-04-21 04:37 | 28.88183 | 129.97045 | 27061 ft | 504 kts | 22° |
| 2026-04-21 04:37 | 28.91306 | 129.98862 | 27069 ft | 504 kts | 22° |
| 2026-04-21 04:37 | 28.94432 | 130.00683 | 27063 ft | 505 kts | 22° |
| 2026-04-21 04:38 | 28.97561 | 130.02508 | 27057 ft | 505 kts | 22° |
| 2026-04-21 04:38 | 29.00689 | 130.04333 | 27056 ft | 505 kts | 22° |
| 2026-04-21 04:38 | 29.03820 | 130.06161 | 27058 ft | 505 kts | 22° |
| 2026-04-21 04:38 | 29.06948 | 130.07989 | 27058 ft | 505 kts | 22° |
| 2026-04-21 04:39 | 29.10077 | 130.09819 | 27067 ft | 506 kts | 22° |
| 2026-04-21 04:39 | 29.13211 | 130.11652 | 27062 ft | 506 kts | 22° |
| 2026-04-21 04:39 | 29.16346 | 130.13488 | 27060 ft | 506 kts | 22° |
| 2026-04-21 04:39 | 29.19479 | 130.15324 | 27059 ft | 506 kts | 22° |
| 2026-04-21 04:40 | 29.22615 | 130.17163 | 27059 ft | 506 kts | 22° |
| 2026-04-21 04:40 | 29.25747 | 130.19001 | 27072 ft | 506 kts | 22° |
| 2026-04-21 04:40 | 29.28889 | 130.20845 | 27071 ft | 508 kts | 22° |
| 2026-04-21 04:40 | 29.32038 | 130.22694 | 27065 ft | 509 kts | 22° |
| 2026-04-21 04:41 | 29.35191 | 130.24547 | 27063 ft | 510 kts | 22° |
| 2026-04-21 04:41 | 29.38352 | 130.26407 | 27053 ft | 511 kts | 22° |
| 2026-04-21 04:41 | 29.41515 | 130.28270 | 27056 ft | 511 kts | 22° |
| 2026-04-21 04:41 | 29.44679 | 130.30135 | 27060 ft | 511 kts | 22° |
| 2026-04-21 04:42 | 29.47836 | 130.31998 | 27059 ft | 511 kts | 22° |
| 2026-04-21 04:42 | 29.50998 | 130.33864 | 27057 ft | 511 kts | 22° |
| 2026-04-21 04:42 | 29.54155 | 130.35729 | 27056 ft | 510 kts | 22° |
| 2026-04-21 04:42 | 29.57315 | 130.37597 | 27059 ft | 510 kts | 22° |
| 2026-04-21 04:43 | 29.60472 | 130.39465 | 27060 ft | 510 kts | 22° |
| 2026-04-21 04:43 | 29.63626 | 130.41332 | 27073 ft | 510 kts | 22° |
| 2026-04-21 04:43 | 29.66782 | 130.43201 | 27065 ft | 509 kts | 22° |
| 2026-04-21 04:43 | 29.69928 | 130.45067 | 27059 ft | 509 kts | 22° |
| 2026-04-21 04:44 | 29.73071 | 130.46931 | 27061 ft | 508 kts | 22° |
| 2026-04-21 04:44 | 29.76219 | 130.48800 | 27060 ft | 509 kts | 22° |
| 2026-04-21 04:44 | 29.79362 | 130.50667 | 27063 ft | 509 kts | 22° |
| 2026-04-21 04:44 | 29.81444 | 130.51904 | 27079 ft | 509 kts | 22° |
| 2026-04-21 04:45 | 29.85648 | 130.54405 | 27065 ft | 508 kts | 22° |
| 2026-04-21 04:45 | 29.88787 | 130.56274 | 27059 ft | 507 kts | 22° |
| 2026-04-21 04:45 | 29.90861 | 130.57510 | 27057 ft | 507 kts | 22° |
| 2026-04-21 04:45 | 29.95049 | 130.60007 | 27062 ft | 507 kts | 22° |
| 2026-04-21 04:46 | 29.97122 | 130.61243 | 27063 ft | 506 kts | 22° |
| 2026-04-21 04:46 | 30.01266 | 130.63716 | 27074 ft | 506 kts | 22° |
| 2026-04-21 04:46 | 30.03376 | 130.64978 | 27069 ft | 506 kts | 22° |
| 2026-04-21 04:46 | 30.06498 | 130.66846 | 27067 ft | 505 kts | 22° |
| 2026-04-21 04:47 | 30.09617 | 130.68716 | 27068 ft | 505 kts | 22° |
| 2026-04-21 04:47 | 30.12735 | 130.70586 | 27062 ft | 505 kts | 22° |
| 2026-04-21 04:47 | 30.15856 | 130.72460 | 27083 ft | 505 kts | 22° |
| 2026-04-21 04:47 | 30.18976 | 130.74334 | 27075 ft | 506 kts | 21° |
| 2026-04-21 04:48 | 30.22104 | 130.76214 | 27073 ft | 507 kts | 21° |
| 2026-04-21 04:48 | 30.25231 | 130.78095 | 27069 ft | 507 kts | 21° |
| 2026-04-21 04:48 | 30.28361 | 130.79979 | 27069 ft | 507 kts | 21° |
| 2026-04-21 04:48 | 30.31491 | 130.81865 | 27066 ft | 507 kts | 21° |
| 2026-04-21 04:49 | 30.34623 | 130.83753 | 27074 ft | 507 kts | 21° |
| 2026-04-21 04:49 | 30.37750 | 130.85638 | 27066 ft | 507 kts | 21° |
| 2026-04-21 04:49 | 30.40880 | 130.87523 | 27067 ft | 507 kts | 21° |
| 2026-04-21 04:49 | 30.44016 | 130.89412 | 27056 ft | 507 kts | 21° |
| 2026-04-21 04:50 | 30.47102 | 130.91276 | 27053 ft | 507 kts | 21° |
| 2026-04-21 04:50 | 30.50271 | 130.93191 | 27047 ft | 507 kts | 21° |
| 2026-04-21 04:50 | 30.53359 | 130.95058 | 27063 ft | 508 kts | 21° |
| 2026-04-21 04:50 | 30.56496 | 130.96955 | 27058 ft | 508 kts | 21° |
| 2026-04-21 04:51 | 30.59610 | 130.98905 | 27042 ft | 511 kts | 24° |
| 2026-04-21 04:51 | 30.62596 | 131.01172 | 27043 ft | 516 kts | 31° |
| 2026-04-21 04:51 | 30.65430 | 131.03748 | 27057 ft | 517 kts | 33° |
| 2026-04-21 04:51 | 30.68243 | 131.06361 | 27068 ft | 518 kts | 33° |
| 2026-04-21 04:52 | 30.71069 | 131.08960 | 27057 ft | 519 kts | 33° |
| 2026-04-21 04:52 | 30.73918 | 131.11537 | 27052 ft | 519 kts | 32° |
| 2026-04-21 04:52 | 30.76775 | 131.14104 | 27053 ft | 519 kts | 32° |
| 2026-04-21 04:52 | 30.79630 | 131.16681 | 27063 ft | 519 kts | 32° |
| 2026-04-21 04:53 | 30.82474 | 131.19267 | 27069 ft | 519 kts | 32° |
| 2026-04-21 04:53 | 30.85316 | 131.21858 | 27084 ft | 520 kts | 32° |
| 2026-04-21 04:53 | 30.88164 | 131.24458 | 27078 ft | 520 kts | 32° |
| 2026-04-21 04:53 | 30.91006 | 131.27054 | 27071 ft | 520 kts | 32° |
| 2026-04-21 04:54 | 30.93851 | 131.29652 | 27075 ft | 520 kts | 32° |
| 2026-04-21 04:54 | 30.96695 | 131.32251 | 27074 ft | 519 kts | 32° |
| 2026-04-21 04:54 | 30.99538 | 131.34849 | 27083 ft | 519 kts | 32° |
| 2026-04-21 04:54 | 31.02380 | 131.37449 | 27078 ft | 519 kts | 32° |
| 2026-04-21 04:55 | 31.05217 | 131.40047 | 27073 ft | 519 kts | 32° |
| 2026-04-21 04:55 | 31.08057 | 131.42648 | 27070 ft | 519 kts | 32° |
| 2026-04-21 04:55 | 31.10897 | 131.45252 | 27071 ft | 519 kts | 32° |
| 2026-04-21 04:55 | 31.13736 | 131.47857 | 27072 ft | 519 kts | 32° |
| 2026-04-21 04:56 | 31.16572 | 131.50459 | 27068 ft | 519 kts | 32° |
| 2026-04-21 04:56 | 31.19408 | 131.53063 | 27071 ft | 519 kts | 32° |
| 2026-04-21 04:56 | 31.22243 | 131.55669 | 27072 ft | 519 kts | 32° |
| 2026-04-21 04:56 | 31.25079 | 131.58274 | 27065 ft | 519 kts | 32° |
| 2026-04-21 04:57 | 31.27919 | 131.60881 | 27072 ft | 519 kts | 32° |
| 2026-04-21 04:57 | 31.30752 | 131.63481 | 27099 ft | 519 kts | 32° |
| 2026-04-21 04:57 | 31.33592 | 131.66088 | 27089 ft | 519 kts | 32° |
| 2026-04-21 04:57 | 31.36432 | 131.68700 | 27081 ft | 519 kts | 32° |
| 2026-04-21 04:58 | 31.39268 | 131.71310 | 27076 ft | 519 kts | 32° |
| 2026-04-21 04:58 | 31.42102 | 131.73922 | 27076 ft | 519 kts | 32° |
| 2026-04-21 04:58 | 31.44938 | 131.76537 | 27079 ft | 518 kts | 32° |
| 2026-04-21 04:58 | 31.47766 | 131.79149 | 27090 ft | 518 kts | 32° |
| 2026-04-21 04:59 | 31.50597 | 131.81763 | 27084 ft | 518 kts | 32° |
| 2026-04-21 04:59 | 31.53431 | 131.84383 | 27079 ft | 518 kts | 32° |
| 2026-04-21 04:59 | 31.56262 | 131.87002 | 27077 ft | 519 kts | 32° |
| 2026-04-21 04:59 | 31.59093 | 131.89626 | 27074 ft | 519 kts | 32° |
| 2026-04-21 05:00 | 31.61922 | 131.92253 | 27103 ft | 518 kts | 32° |
| 2026-04-21 05:00 | 31.64743 | 131.94880 | 27075 ft | 518 kts | 32° |
| 2026-04-21 05:00 | 31.70389 | 132.00134 | 27072 ft | 518 kts | 32° |
| 2026-04-21 05:01 | 31.73216 | 132.02765 | 27081 ft | 519 kts | 32° |
| 2026-04-21 05:01 | 31.76043 | 132.05402 | 27104 ft | 519 kts | 32° |
| 2026-04-21 05:01 | 31.78876 | 132.08047 | 27088 ft | 520 kts | 32° |
| 2026-04-21 05:01 | 31.81670 | 132.10658 | 27082 ft | 520 kts | 32° |
| 2026-04-21 05:02 | 31.84501 | 132.13306 | 27067 ft | 520 kts | 32° |
| 2026-04-21 05:02 | 31.87328 | 132.15953 | 27083 ft | 519 kts | 32° |
| 2026-04-21 05:02 | 31.90155 | 132.18600 | 27088 ft | 519 kts | 32° |
| 2026-04-21 05:02 | 31.92980 | 132.21247 | 27073 ft | 519 kts | 32° |
| 2026-04-21 05:03 | 31.95807 | 132.23897 | 27072 ft | 520 kts | 32° |
| 2026-04-21 05:03 | 31.98635 | 132.26550 | 27073 ft | 520 kts | 32° |
| 2026-04-21 05:03 | 32.01460 | 132.29204 | 27076 ft | 520 kts | 32° |
| 2026-04-21 05:03 | 32.04289 | 132.31864 | 27075 ft | 520 kts | 32° |
| 2026-04-21 05:04 | 32.07115 | 132.34524 | 27084 ft | 520 kts | 32° |
| 2026-04-21 05:04 | 32.09937 | 132.37182 | 27077 ft | 520 kts | 32° |
| 2026-04-21 05:04 | 32.12764 | 132.39845 | 27073 ft | 519 kts | 32° |
| 2026-04-21 05:04 | 32.15587 | 132.42509 | 27059 ft | 520 kts | 32° |
| 2026-04-21 05:05 | 32.18407 | 132.45173 | 27069 ft | 520 kts | 32° |
| 2026-04-21 05:05 | 32.21227 | 132.47839 | 27086 ft | 519 kts | 32° |
| 2026-04-21 05:05 | 32.24049 | 132.50509 | 27079 ft | 519 kts | 32° |
| 2026-04-21 05:05 | 32.26870 | 132.53181 | 27070 ft | 519 kts | 32° |
| 2026-04-21 05:06 | 32.29684 | 132.55849 | 27069 ft | 519 kts | 32° |
| 2026-04-21 05:06 | 32.32500 | 132.58522 | 27069 ft | 519 kts | 32° |
| 2026-04-21 05:06 | 32.35316 | 132.61196 | 27088 ft | 519 kts | 32° |
| 2026-04-21 05:06 | 32.38125 | 132.63866 | 27060 ft | 519 kts | 32° |
| 2026-04-21 05:07 | 32.40939 | 132.66542 | 27061 ft | 519 kts | 32° |
| 2026-04-21 05:07 | 32.43747 | 132.69216 | 27069 ft | 519 kts | 32° |
| 2026-04-21 05:07 | 32.46561 | 132.71897 | 27063 ft | 519 kts | 32° |
| 2026-04-21 05:07 | 32.49372 | 132.74577 | 27087 ft | 519 kts | 32° |
| 2026-04-21 05:08 | 32.52183 | 132.77260 | 27066 ft | 519 kts | 32° |
| 2026-04-21 05:08 | 32.54994 | 132.79946 | 27060 ft | 518 kts | 32° |
| 2026-04-21 05:08 | 32.57799 | 132.82627 | 27057 ft | 518 kts | 32° |
| 2026-04-21 05:08 | 32.60601 | 132.85308 | 27059 ft | 518 kts | 32° |
| 2026-04-21 05:09 | 32.63399 | 132.87988 | 27056 ft | 517 kts | 32° |
| 2026-04-21 05:09 | 32.66199 | 132.90672 | 27055 ft | 517 kts | 32° |
| 2026-04-21 05:09 | 32.68997 | 132.93355 | 27054 ft | 517 kts | 32° |
| 2026-04-21 05:09 | 32.71769 | 132.96076 | 27053 ft | 518 kts | 36° |
| 2026-04-21 05:10 | 32.74234 | 132.99261 | 27046 ft | 530 kts | 48° |
| 2026-04-21 05:10 | 32.76225 | 133.02976 | 27070 ft | 537 kts | 58° |
| 2026-04-21 05:10 | 32.77702 | 133.07079 | 27044 ft | 543 kts | 69° |
| 2026-04-21 05:10 | 32.78749 | 133.11397 | 27061 ft | 545 kts | 72° |
| 2026-04-21 05:11 | 32.79761 | 133.15748 | 27063 ft | 547 kts | 72° |
| 2026-04-21 05:11 | 32.80774 | 133.20046 | 27051 ft | 548 kts | 71° |
| 2026-04-21 05:11 | 32.81832 | 133.24407 | 27037 ft | 549 kts | 71° |
| 2026-04-21 05:11 | 32.82912 | 133.28763 | 27040 ft | 549 kts | 71° |
| 2026-04-21 05:12 | 32.84017 | 133.33164 | 27066 ft | 549 kts | 70° |
| 2026-04-21 05:12 | 32.85112 | 133.37514 | 27057 ft | 549 kts | 70° |
| 2026-04-21 05:12 | 32.86204 | 133.41858 | 27044 ft | 548 kts | 70° |
| 2026-04-21 05:12 | 32.87274 | 133.46137 | 27027 ft | 547 kts | 71° |
| 2026-04-21 05:13 | 32.88353 | 133.50470 | 27034 ft | 546 kts | 71° |
| 2026-04-21 05:13 | 32.89431 | 133.54803 | 27037 ft | 546 kts | 71° |
| 2026-04-21 05:13 | 32.90505 | 133.59131 | 27077 ft | 546 kts | 71° |
| 2026-04-21 05:13 | 32.91579 | 133.63474 | 27036 ft | 548 kts | 71° |
| 2026-04-21 05:14 | 32.92651 | 133.67819 | 27041 ft | 548 kts | 71° |
| 2026-04-21 05:14 | 32.93722 | 133.72174 | 27045 ft | 548 kts | 71° |
| 2026-04-21 05:14 | 32.94792 | 133.76529 | 27041 ft | 548 kts | 71° |
| 2026-04-21 05:14 | 32.95860 | 133.80883 | 27037 ft | 548 kts | 71° |
| 2026-04-21 05:15 | 32.96927 | 133.85241 | 27034 ft | 548 kts | 71° |
| 2026-04-21 05:15 | 32.97993 | 133.89598 | 27058 ft | 548 kts | 71° |
| 2026-04-21 05:15 | 32.99056 | 133.93950 | 27041 ft | 548 kts | 71° |
| 2026-04-21 05:15 | 33.00120 | 133.98314 | 27038 ft | 548 kts | 71° |
| 2026-04-21 05:16 | 33.01180 | 134.02672 | 27040 ft | 548 kts | 71° |
| 2026-04-21 05:16 | 33.02241 | 134.07036 | 27031 ft | 548 kts | 71° |
| 2026-04-21 05:16 | 33.03300 | 134.11403 | 27037 ft | 549 kts | 71° |
| 2026-04-21 05:16 | 33.04357 | 134.15767 | 27057 ft | 549 kts | 71° |
| 2026-04-21 05:17 | 33.05415 | 134.20141 | 27052 ft | 549 kts | 71° |
| 2026-04-21 05:17 | 33.06473 | 134.24519 | 27031 ft | 549 kts | 71° |
| 2026-04-21 05:17 | 33.07543 | 134.28888 | 27033 ft | 549 kts | 71° |
| 2026-04-21 05:17 | 33.08627 | 134.33255 | 27038 ft | 549 kts | 71° |
| 2026-04-21 05:18 | 33.09716 | 134.37625 | 27041 ft | 549 kts | 71° |
| 2026-04-21 05:18 | 33.10802 | 134.41988 | 27042 ft | 549 kts | 71° |
| 2026-04-21 05:18 | 33.11886 | 134.46360 | 27052 ft | 550 kts | 71° |
| 2026-04-21 05:18 | 33.12966 | 134.50736 | 27045 ft | 550 kts | 71° |
| 2026-04-21 05:19 | 33.14043 | 134.55115 | 27043 ft | 550 kts | 71° |
| 2026-04-21 05:19 | 33.15118 | 134.59497 | 27040 ft | 550 kts | 71° |
| 2026-04-21 05:19 | 33.16192 | 134.63881 | 27032 ft | 550 kts | 71° |
| 2026-04-21 05:19 | 33.17263 | 134.68264 | 27037 ft | 550 kts | 71° |
| 2026-04-21 05:20 | 33.18332 | 134.72640 | 27062 ft | 550 kts | 71° |
| 2026-04-21 05:20 | 33.19401 | 134.77022 | 27054 ft | 551 kts | 71° |
| 2026-04-21 05:20 | 33.20458 | 134.81365 | 27047 ft | 551 kts | 71° |
| 2026-04-21 05:20 | 33.21525 | 134.85759 | 27037 ft | 551 kts | 71° |
| 2026-04-21 05:21 | 33.22591 | 134.90152 | 27039 ft | 551 kts | 71° |
| 2026-04-21 05:21 | 33.23657 | 134.94555 | 27041 ft | 551 kts | 71° |
| 2026-04-21 05:21 | 33.24722 | 134.98956 | 27058 ft | 552 kts | 72° |
| 2026-04-21 05:21 | 33.25811 | 135.03353 | 27042 ft | 552 kts | 71° |
| 2026-04-21 05:22 | 33.26951 | 135.07732 | 27004 ft | 553 kts | 70° |
| 2026-04-21 05:22 | 33.28113 | 135.12097 | 27028 ft | 551 kts | 70° |
| 2026-04-21 05:22 | 33.29273 | 135.16451 | 27030 ft | 550 kts | 70° |
| 2026-04-21 05:22 | 33.30425 | 135.20807 | 27032 ft | 549 kts | 70° |
| 2026-04-21 05:23 | 33.31566 | 135.25161 | 27027 ft | 549 kts | 70° |
| 2026-04-21 05:23 | 33.32700 | 135.29519 | 27026 ft | 549 kts | 70° |
| 2026-04-21 05:23 | 33.33832 | 135.33887 | 27019 ft | 549 kts | 70° |
| 2026-04-21 05:23 | 33.34961 | 135.38248 | 27018 ft | 550 kts | 70° |
| 2026-04-21 05:24 | 33.36093 | 135.42622 | 27017 ft | 550 kts | 70° |
| 2026-04-21 05:24 | 33.37206 | 135.46994 | 27009 ft | 551 kts | 71° |
| 2026-04-21 05:24 | 33.38263 | 135.51403 | 27006 ft | 551 kts | 72° |
| 2026-04-21 05:24 | 33.39286 | 135.55820 | 27004 ft | 551 kts | 72° |
| 2026-04-21 05:25 | 33.40306 | 135.60240 | 27017 ft | 551 kts | 72° |
| 2026-04-21 05:25 | 33.41335 | 135.64657 | 26994 ft | 552 kts | 72° |
| 2026-04-21 05:25 | 33.42371 | 135.69058 | 26990 ft | 552 kts | 72° |
| 2026-04-21 05:25 | 33.43490 | 135.73475 | 26985 ft | 550 kts | 67° |
| 2026-04-21 05:26 | 33.45138 | 135.77560 | 26985 ft | 544 kts | 54° |
| 2026-04-21 05:26 | 33.47339 | 135.81214 | 27007 ft | 537 kts | 44° |
| 2026-04-21 05:26 | 33.49931 | 135.84394 | 26977 ft | 528 kts | 33° |
| 2026-04-21 05:26 | 33.52831 | 135.87021 | 27003 ft | 521 kts | 29° |
| 2026-04-21 05:27 | 33.55760 | 135.89592 | 26997 ft | 524 kts | 30° |
| 2026-04-21 05:27 | 33.58694 | 135.92206 | 26975 ft | 526 kts | 30° |
| 2026-04-21 05:27 | 33.61588 | 135.94827 | 26977 ft | 513 kts | 30° |
| 2026-04-21 05:27 | 33.64384 | 135.97398 | 26779 ft | 501 kts | 30° |
| 2026-04-21 05:28 | 33.67124 | 135.99936 | 26332 ft | 495 kts | 31° |
| 2026-04-21 05:28 | 33.69833 | 136.02448 | 25931 ft | 489 kts | 30° |
| 2026-04-21 05:28 | 33.72510 | 136.04930 | 25497 ft | 484 kts | 30° |
| 2026-04-21 05:28 | 33.75167 | 136.07388 | 25087 ft | 480 kts | 30° |
| 2026-04-21 05:29 | 33.77799 | 136.09821 | 24666 ft | 476 kts | 30° |
| 2026-04-21 05:29 | 33.80381 | 136.12210 | 24270 ft | 473 kts | 30° |
| 2026-04-21 05:29 | 33.82980 | 136.14617 | 23875 ft | 470 kts | 30° |
| 2026-04-21 05:29 | 33.85557 | 136.17006 | 23475 ft | 467 kts | 30° |
| 2026-04-21 05:30 | 33.88124 | 136.19388 | 23003 ft | 464 kts | 30° |
| 2026-04-21 05:30 | 33.90673 | 136.21756 | 22541 ft | 462 kts | 30° |
| 2026-04-21 05:30 | 33.93134 | 136.24232 | 22064 ft | 464 kts | 37° |
| 2026-04-21 05:30 | 33.95279 | 136.27169 | 21591 ft | 471 kts | 47° |
| 2026-04-21 05:31 | 33.97030 | 136.30524 | 21151 ft | 475 kts | 57° |
| 2026-04-21 05:31 | 33.98489 | 136.34089 | 20729 ft | 475 kts | 60° |
| 2026-04-21 05:31 | 33.99850 | 136.37709 | 20303 ft | 473 kts | 62° |
| 2026-04-21 05:31 | 34.01172 | 136.41328 | 19872 ft | 471 kts | 62° |
| 2026-04-21 05:32 | 34.02479 | 136.44934 | 19451 ft | 468 kts | 62° |
| 2026-04-21 05:32 | 34.03775 | 136.48527 | 19031 ft | 466 kts | 62° |
| 2026-04-21 05:32 | 34.05058 | 136.52096 | 18619 ft | 463 kts | 62° |
| 2026-04-21 05:32 | 34.06331 | 136.55647 | 18193 ft | 460 kts | 62° |
| 2026-04-21 05:33 | 34.07596 | 136.59176 | 17740 ft | 457 kts | 62° |
| 2026-04-21 05:33 | 34.08851 | 136.62673 | 17276 ft | 452 kts | 62° |
| 2026-04-21 05:33 | 34.10095 | 136.66130 | 16812 ft | 445 kts | 62° |
| 2026-04-21 05:33 | 34.10909 | 136.68384 | 16515 ft | 441 kts | 62° |
| 2026-04-21 05:34 | 34.12536 | 136.72871 | 15917 ft | 432 kts | 62° |
| 2026-04-21 05:34 | 34.13334 | 136.75060 | 15619 ft | 428 kts | 62° |
| 2026-04-21 05:34 | 34.14545 | 136.78368 | 15189 ft | 422 kts | 62° |
| 2026-04-21 05:34 | 34.15732 | 136.81587 | 14752 ft | 417 kts | 62° |
| 2026-04-21 05:35 | 34.16891 | 136.84716 | 14343 ft | 412 kts | 62° |
| 2026-04-21 05:35 | 34.18059 | 136.87853 | 13927 ft | 406 kts | 62° |
| 2026-04-21 05:35 | 34.19216 | 136.90940 | 13467 ft | 401 kts | 62° |
| 2026-04-21 05:35 | 34.20362 | 136.93993 | 12987 ft | 396 kts | 62° |
| 2026-04-21 05:36 | 34.21491 | 136.97005 | 12536 ft | 392 kts | 62° |
| 2026-04-21 05:36 | 34.22605 | 136.99984 | 12083 ft | 387 kts | 62° |
| 2026-04-21 05:36 | 34.23705 | 137.02935 | 11631 ft | 382 kts | 62° |
| 2026-04-21 05:36 | 34.24784 | 137.05848 | 11190 ft | 378 kts | 62° |
| 2026-04-21 05:37 | 34.25848 | 137.08739 | 10763 ft | 374 kts | 62° |
| 2026-04-21 05:37 | 34.26891 | 137.11591 | 10325 ft | 370 kts | 62° |
| 2026-04-21 05:37 | 34.27916 | 137.14412 | 10036 ft | 361 kts | 62° |
| 2026-04-21 05:37 | 34.28895 | 137.17139 | 9981 ft | 345 kts | 62° |
| 2026-04-21 05:38 | 34.29819 | 137.19741 | 9968 ft | 329 kts | 62° |
| 2026-04-21 05:38 | 34.30694 | 137.22230 | 9963 ft | 314 kts | 62° |
| 2026-04-21 05:38 | 34.31523 | 137.24616 | 9963 ft | 304 kts | 62° |
| 2026-04-21 05:38 | 34.32337 | 137.26970 | 9972 ft | 303 kts | 62° |
| 2026-04-21 05:39 | 34.33150 | 137.29320 | 9982 ft | 303 kts | 62° |
| 2026-04-21 05:39 | 34.33965 | 137.31678 | 9979 ft | 304 kts | 62° |
| 2026-04-21 05:39 | 34.34784 | 137.34042 | 9980 ft | 305 kts | 62° |
| 2026-04-21 05:39 | 34.35604 | 137.36408 | 9865 ft | 306 kts | 62° |
| 2026-04-21 05:40 | 34.36431 | 137.38790 | 9562 ft | 307 kts | 62° |
| 2026-04-21 05:40 | 34.37256 | 137.41164 | 9254 ft | 305 kts | 62° |
| 2026-04-21 05:40 | 34.38073 | 137.43519 | 8946 ft | 302 kts | 62° |
| 2026-04-21 05:40 | 34.38881 | 137.45859 | 8647 ft | 300 kts | 62° |
| 2026-04-21 05:41 | 34.39684 | 137.48185 | 8341 ft | 298 kts | 62° |
| 2026-04-21 05:41 | 34.40480 | 137.50495 | 8039 ft | 297 kts | 62° |
| 2026-04-21 05:41 | 34.41271 | 137.52799 | 7733 ft | 295 kts | 62° |
| 2026-04-21 05:41 | 34.42053 | 137.55091 | 7442 ft | 294 kts | 62° |
| 2026-04-21 05:42 | 34.42826 | 137.57377 | 7147 ft | 292 kts | 62° |
| 2026-04-21 05:42 | 34.43591 | 137.59653 | 6864 ft | 291 kts | 62° |
| 2026-04-21 05:42 | 34.44357 | 137.61930 | 6521 ft | 292 kts | 62° |
| 2026-04-21 05:42 | 34.45130 | 137.64209 | 6155 ft | 293 kts | 62° |
| 2026-04-21 05:43 | 34.45899 | 137.66501 | 5785 ft | 294 kts | 62° |
| 2026-04-21 05:43 | 34.46650 | 137.68805 | 5423 ft | 295 kts | 62° |
| 2026-04-21 05:43 | 34.47387 | 137.71134 | 5061 ft | 296 kts | 62° |
| 2026-04-21 05:43 | 34.48098 | 137.73425 | 4684 ft | 296 kts | 62° |
| 2026-04-21 05:44 | 34.48823 | 137.75805 | 4304 ft | 295 kts | 62° |
| 2026-04-21 05:44 | 34.49502 | 137.78061 | 3901 ft | 277 kts | 62° |
| 2026-04-21 05:44 | 34.50139 | 137.80221 | 3525 ft | 267 kts | 62° |
| 2026-04-21 05:44 | 34.50770 | 137.82302 | 3126 ft | 263 kts | 62° |
| 2026-04-21 05:45 | 34.51414 | 137.84361 | 2926 ft | 257 kts | 62° |
| 2026-04-21 05:45 | 34.52027 | 137.86338 | 2916 ft | 244 kts | 62° |
| 2026-04-21 05:45 | 34.52605 | 137.88224 | 2907 ft | 235 kts | 62° |
| 2026-04-21 05:45 | 34.53163 | 137.90047 | 2909 ft | 232 kts | 63° |
| 2026-04-21 05:46 | 34.53844 | 137.91792 | 2903 ft | 220 kts | 43° |
| 2026-04-21 05:46 | 34.55035 | 137.92808 | 2913 ft | 204 kts | 11° |
| 2026-04-21 05:46 | 34.56413 | 137.93177 | 2911 ft | 204 kts | 3° |
| 2026-04-21 05:46 | 34.57831 | 137.93441 | 2915 ft | 208 kts | 2° |
| 2026-04-21 05:47 | 34.59265 | 137.93696 | 2907 ft | 207 kts | 2° |
| 2026-04-21 05:47 | 34.60660 | 137.93946 | 2896 ft | 204 kts | 2° |
| 2026-04-21 05:47 | 34.62051 | 137.94201 | 2885 ft | 201 kts | 2° |
| 2026-04-21 05:47 | 34.63426 | 137.94466 | 2889 ft | 200 kts | 2° |
| 2026-04-21 05:48 | 34.64794 | 137.94737 | 2882 ft | 199 kts | 2° |
| 2026-04-21 05:48 | 34.66158 | 137.95010 | 2880 ft | 199 kts | 2° |
| 2026-04-21 05:48 | 34.67513 | 137.95283 | 2875 ft | 193 kts | 2° |
| 2026-04-21 05:48 | 34.68793 | 137.95552 | 2850 ft | 180 kts | 2° |
| 2026-04-21 05:49 | 34.69996 | 137.95819 | 2888 ft | 174 kts | 2° |
| 2026-04-21 05:49 | 34.71156 | 137.96077 | 2876 ft | 171 kts | 2° |
| 2026-04-21 05:49 | 34.72333 | 137.96329 | 2886 ft | 167 kts | 1° |
| 2026-04-21 05:49 | 34.73427 | 137.96165 | 2862 ft | 156 kts | 325° |
| 2026-04-21 05:50 | 34.74102 | 137.95095 | 2876 ft | 168 kts | 293° |
| 2026-04-21 05:50 | 34.74451 | 137.93741 | 2877 ft | 168 kts | 292° |
| 2026-04-21 05:50 | 34.74797 | 137.92393 | 2870 ft | 166 kts | 292° |
| 2026-04-21 05:50 | 34.75043 | 137.91041 | 2872 ft | 164 kts | 281° |
| 2026-04-21 05:51 | 34.75060 | 137.89637 | 2886 ft | 169 kts | 277° |
| 2026-04-21 05:51 | 34.75048 | 137.88176 | 2890 ft | 174 kts | 276° |
| 2026-04-21 05:51 | 34.75041 | 137.86684 | 2591 ft | 172 kts | 275° |
| 2026-04-21 05:51 | 34.75035 | 137.85297 | 2363 ft | 159 kts | 275° |
| 2026-04-21 05:52 | 34.75029 | 137.83958 | 2141 ft | 158 kts | 276° |
| 2026-04-21 05:52 | 34.75028 | 137.82635 | 1941 ft | 153 kts | 277° |
| 2026-04-21 05:52 | 34.75029 | 137.81372 | 1732 ft | 148 kts | 277° |
| 2026-04-21 05:52 | 34.75032 | 137.80074 | 1530 ft | 153 kts | 278° |
| 2026-04-21 05:53 | 34.75033 | 137.78795 | 1328 ft | 149 kts | 277° |
| 2026-04-21 05:53 | 34.75034 | 137.77589 | 1152 ft | 136 kts | 278° |
| 2026-04-21 05:53 | 34.75036 | 137.76477 | 990 ft | 129 kts | 276° |
| 2026-04-21 05:53 | 34.75036 | 137.75401 | 855 ft | 123 kts | 277° |
| 2026-04-21 05:54 | 34.75040 | 137.74375 | 670 ft | 124 kts | 274° |
| 2026-04-21 05:54 | 34.75045 | 137.73287 | 484 ft | 132 kts | 274° |
| 2026-04-21 05:54 | 34.75043 | 137.72221 | 307 ft | 119 kts | 273° |
| 2026-04-21 05:54 | 34.75039 | 137.71307 | 166 ft | 99 kts | 277° |
| 2026-04-21 05:55 | 34.75050 | 137.70425 | 163 ft | 103 kts | 269° |
| 2026-04-21 05:55 | 34.75054 | 137.69789 | 157 ft | 55 kts | 270° |
| 2026-04-21 05:55 | 34.75059 | 137.69396 | 155 ft | 42 kts | 270° |
| 2026-04-21 05:55 | 34.75059 | 137.69132 | 160 ft | 20 kts | 271° |
| 2026-04-21 05:56 | 34.75011 | 137.68999 | 161 ft | 14 kts | 187° |
| 2026-04-21 05:56 | 34.74931 | 137.69091 | 159 ft | 27 kts | 119° |
| 2026-04-21 05:56 | 34.74900 | 137.69266 | 159 ft | 19 kts | 91° |
| 2026-04-21 05:56 | 34.74885 | 137.69401 | 159 ft | 11 kts | 134° |
| 2026-04-21 05:57 | 34.74846 | 137.69442 | 161 ft | 7 kts | 93° |
| 2026-04-21 05:57 | 34.74848 | 137.69507 | 158 ft | 9 kts | 88° |
| 2026-04-21 05:57 | 34.74840 | 137.69583 | 157 ft | 10 kts | 117° |
| 2026-04-21 05:57 | 34.74801 | 137.69634 | 157 ft | 6 kts | 134° |
| 2026-04-21 05:58 | 34.74795 | 137.69643 | 157 ft | 0 kts | 135° |